Time,TemperatureF,DewpointF,PressureIn,WindDirection,WindDirectionDegrees,WindSpeedMPH,WindSpeedGustMPH,Humidity,HourlyPrecipIn,Conditions,Clouds,dailyrainin,SoftwareType,DateUTC
2013-06-19 00:00:00,78.1,75.3,29.92,WSW,241,0.0,0.0,91,0.00,,---,0.00,VWS V14.01,2013-06-19 04:00:00,
2013-06-19 00:01:00,78.1,75.3,29.92,WSW,241,0.0,0.0,91,0.00,,---,0.00,VWS V14.01,2013-06-19 04:01:00,
2013-06-19 00:03:00,77.9,75.1,29.92,WSW,241,0.0,0.0,91,0.00,,---,0.00,VWS V14.01,2013-06-19 04:03:00,
2013-06-19 00:05:00,77.9,75.1,29.92,WSW,241,0.0,0.0,91,0.00,,---,0.00,VWS V14.01,2013-06-19 04:05:00,
2013-06-19 00:08:00,77.9,75.1,29.92,WSW,241,0.0,0.0,91,0.00,,---,0.00,VWS V14.01,2013-06-19 04:08:00,
2013-06-19 00:09:00,77.9,75.1,29.92,WSW,241,0.0,0.0,91,0.00,,---,0.00,VWS V14.01,2013-06-19 04:09:00,
2013-06-19 00:11:00,77.7,74.9,29.92,WSW,241,0.0,0.0,91,0.00,,---,0.00,VWS V14.01,2013-06-19 04:11:00,
2013-06-19 00:12:00,77.7,74.9,29.92,WSW,241,0.0,0.0,91,0.00,,---,0.00,VWS V14.01,2013-06-19 04:12:00,
2013-06-19 00:14:00,77.7,74.9,29.92,WSW,241,0.0,0.0,91,0.00,,---,0.00,VWS V14.01,2013-06-19 04:14:00,
2013-06-19 00:15:00,77.7,74.9,29.92,WSW,241,0.0,0.0,91,0.00,,---,0.00,VWS V14.01,2013-06-19 04:15:00,
2013-06-19 00:16:00,77.7,74.9,29.92,WSW,241,0.0,0.0,91,0.00,,---,0.00,VWS V14.01,2013-06-19 04:16:00,
2013-06-19 00:18:00,77.6,74.8,29.92,WSW,241,0.0,0.0,91,0.00,,---,0.00,VWS V14.01,2013-06-19 04:18:00,
2013-06-19 00:20:00,77.6,74.8,29.92,WSW,241,0.0,0.0,91,0.00,,---,0.00,VWS V14.01,2013-06-19 04:20:00,
2013-06-19 00:21:00,77.6,74.8,29.92,WSW,241,0.0,0.0,91,0.00,,---,0.00,VWS V14.01,2013-06-19 04:21:00,
2013-06-19 00:23:00,77.4,74.9,29.92,WSW,241,0.0,0.0,92,0.00,,---,0.00,VWS V14.01,2013-06-19 04:23:00,
2013-06-19 00:25:00,77.4,74.9,29.92,WSW,241,0.0,0.0,92,0.00,,---,0.00,VWS V14.01,2013-06-19 04:25:00,
2013-06-19 00:26:00,77.4,74.9,29.92,WSW,241,0.0,0.0,92,0.00,,---,0.00,VWS V14.01,2013-06-19 04:26:00,
2013-06-19 00:27:00,77.4,74.9,29.92,WSW,241,0.0,0.0,92,0.00,,---,0.00,VWS V14.01,2013-06-19 04:27:00,
2013-06-19 00:30:00,77.4,74.9,29.92,WSW,241,0.0,0.0,92,0.00,,---,0.00,VWS V14.01,2013-06-19 04:30:00,
2013-06-19 00:31:00,77.4,74.9,29.92,WSW,241,0.0,0.0,92,0.00,,---,0.00,VWS V14.01,2013-06-19 04:31:00,
2013-06-19 00:33:00,77.2,74.7,29.92,WSW,241,0.0,0.0,92,0.00,,---,0.00,VWS V14.01,2013-06-19 04:33:00,
2013-06-19 00:35:00,77.2,74.7,29.92,WSW,241,0.0,0.0,92,0.00,,---,0.00,VWS V14.01,2013-06-19 04:35:00,
2013-06-19 00:36:00,77.2,74.7,29.92,WSW,241,0.0,0.0,92,0.00,,---,0.00,VWS V14.01,2013-06-19 04:36:00,
2013-06-19 00:37:00,77.2,74.7,29.92,WSW,241,0.0,0.0,92,0.00,,---,0.00,VWS V14.01,2013-06-19 04:37:00,
2013-06-19 00:38:00,77.2,74.7,29.92,WSW,241,0.0,0.0,92,0.00,,---,0.00,VWS V14.01,2013-06-19 04:38:00,
2013-06-19 00:40:00,77.2,74.7,29.92,WSW,241,0.0,0.0,92,0.00,,---,0.00,VWS V14.01,2013-06-19 04:40:00,
2013-06-19 00:42:00,77.2,74.7,29.92,WSW,241,0.0,0.0,92,0.00,,---,0.00,VWS V14.01,2013-06-19 04:42:00,
2013-06-19 00:43:00,77.0,74.5,29.92,WSW,241,0.0,0.0,92,0.00,,---,0.00,VWS V14.01,2013-06-19 04:43:00,
2013-06-19 00:45:00,77.0,74.5,29.92,WSW,241,0.0,0.0,92,0.00,,---,0.00,VWS V14.01,2013-06-19 04:45:00,
2013-06-19 00:46:00,77.0,74.5,29.92,WSW,241,0.0,0.0,92,0.00,,---,0.00,VWS V14.01,2013-06-19 04:46:00,
2013-06-19 00:48:00,77.0,74.5,29.92,WSW,241,0.0,0.0,92,0.00,,---,0.00,VWS V14.01,2013-06-19 04:48:00,
2013-06-19 00:49:00,76.8,74.3,29.92,WSW,241,0.0,0.0,92,0.00,,---,0.00,VWS V14.01,2013-06-19 04:49:00,
2013-06-19 00:50:00,76.8,74.3,29.92,WSW,241,0.0,0.0,92,0.00,,---,0.00,VWS V14.01,2013-06-19 04:50:00,
2013-06-19 00:53:00,76.8,74.3,29.92,WSW,241,0.0,0.0,92,0.00,,---,0.00,VWS V14.01,2013-06-19 04:53:00,
2013-06-19 00:54:00,76.8,74.3,29.92,WSW,241,0.0,0.0,92,0.00,,---,0.00,VWS V14.01,2013-06-19 04:54:00,
2013-06-19 00:55:00,76.8,74.3,29.92,WSW,241,0.0,0.0,92,0.00,,---,0.00,VWS V14.01,2013-06-19 04:55:00,
2013-06-19 00:56:00,76.8,74.3,29.92,WSW,241,0.0,0.0,92,0.00,,---,0.00,VWS V14.01,2013-06-19 04:56:00,
2013-06-19 00:57:00,76.8,74.3,29.92,WSW,241,0.0,0.0,92,0.00,,---,0.00,VWS V14.01,2013-06-19 04:57:00,
2013-06-19 00:59:00,76.8,74.6,29.92,WSW,241,0.0,0.0,93,0.00,,---,0.00,VWS V14.01,2013-06-19 04:59:00,
2013-06-19 01:00:00,76.8,74.6,29.92,WSW,241,0.0,0.0,93,0.00,,---,0.00,VWS V14.01,2013-06-19 05:00:00,
2013-06-19 01:02:00,76.7,74.5,29.92,WSW,241,0.0,0.0,93,0.00,,---,0.00,VWS V14.01,2013-06-19 05:02:00,
2013-06-19 01:06:00,76.7,74.5,29.92,WSW,241,0.0,0.0,93,0.00,,---,0.00,VWS V14.01,2013-06-19 05:06:00,
2013-06-19 01:07:00,76.7,74.5,29.92,WSW,241,0.0,0.0,93,0.00,,---,0.00,VWS V14.01,2013-06-19 05:07:00,
2013-06-19 01:08:00,76.7,74.5,29.92,WSW,241,0.0,0.0,93,0.00,,---,0.00,VWS V14.01,2013-06-19 05:08:00,
2013-06-19 01:11:00,76.7,74.5,29.92,WSW,241,0.0,0.0,93,0.00,,---,0.00,VWS V14.01,2013-06-19 05:11:00,
2013-06-19 01:12:00,76.7,74.5,29.92,WSW,241,0.0,0.0,93,0.00,,---,0.00,VWS V14.01,2013-06-19 05:12:00,
2013-06-19 01:13:00,76.7,74.5,29.92,WSW,241,0.0,0.0,93,0.00,,---,0.00,VWS V14.01,2013-06-19 05:13:00,
2013-06-19 01:14:00,76.7,74.5,29.92,WSW,241,0.0,0.0,93,0.00,,---,0.00,VWS V14.01,2013-06-19 05:14:00,
2013-06-19 01:16:00,76.7,74.5,29.92,WSW,241,0.0,0.0,93,0.00,,---,0.00,VWS V14.01,2013-06-19 05:16:00,
2013-06-19 01:17:00,76.7,74.5,29.92,WSW,241,0.0,0.0,93,0.00,,---,0.00,VWS V14.01,2013-06-19 05:17:00,
2013-06-19 01:19:00,76.7,74.5,29.92,WSW,241,0.0,0.0,93,0.00,,---,0.00,VWS V14.01,2013-06-19 05:19:00,
2013-06-19 01:20:00,76.7,74.5,29.92,WSW,241,0.0,0.0,93,0.00,,---,0.00,VWS V14.01,2013-06-19 05:20:00,
2013-06-19 01:23:00,76.7,74.5,29.92,WSW,241,0.0,0.0,93,0.00,,---,0.00,VWS V14.01,2013-06-19 05:23:00,
2013-06-19 01:24:00,76.7,74.5,29.92,WSW,241,0.0,0.0,93,0.00,,---,0.00,VWS V14.01,2013-06-19 05:24:00,
2013-06-19 01:26:00,76.5,74.7,29.92,WSW,241,0.0,0.0,94,0.00,,---,0.00,VWS V14.01,2013-06-19 05:26:00,
2013-06-19 01:28:00,76.5,74.7,29.92,WSW,241,0.0,0.0,94,0.00,,---,0.00,VWS V14.01,2013-06-19 05:28:00,
2013-06-19 01:29:00,76.5,74.7,29.92,WSW,241,0.0,2.0,94,0.00,,---,0.00,VWS V14.01,2013-06-19 05:29:00,
2013-06-19 01:31:00,76.7,74.8,29.92,WSW,241,0.0,2.0,94,0.00,,---,0.00,VWS V14.01,2013-06-19 05:31:00,
2013-06-19 01:33:00,76.7,74.8,29.92,WSW,241,1.0,2.0,94,0.00,,---,0.00,VWS V14.01,2013-06-19 05:33:00,
2013-06-19 01:35:00,76.7,74.8,29.92,WSW,241,0.0,2.0,94,0.00,,---,0.00,VWS V14.01,2013-06-19 05:35:00,
2013-06-19 01:36:00,76.8,74.9,29.92,WSW,241,0.0,2.0,94,0.00,,---,0.00,VWS V14.01,2013-06-19 05:36:00,
2013-06-19 01:38:00,77.0,75.1,29.92,WSW,241,0.0,2.0,94,0.00,,---,0.00,VWS V14.01,2013-06-19 05:38:00,
2013-06-19 01:39:00,77.0,75.1,29.92,WSW,241,0.0,2.0,94,0.00,,---,0.00,VWS V14.01,2013-06-19 05:39:00,
2013-06-19 01:41:00,77.0,75.1,29.92,WSW,241,0.0,2.0,94,0.00,,---,0.00,VWS V14.01,2013-06-19 05:41:00,
2013-06-19 01:44:00,77.0,75.5,29.92,WSW,241,0.0,2.0,95,0.00,,---,0.00,VWS V14.01,2013-06-19 05:44:00,
2013-06-19 01:47:00,77.2,75.7,29.92,WSW,241,0.0,2.0,95,0.00,,---,0.00,VWS V14.01,2013-06-19 05:47:00,
2013-06-19 01:48:00,77.0,75.1,29.92,WSW,241,0.0,2.0,94,0.00,,---,0.00,VWS V14.01,2013-06-19 05:48:00,
2013-06-19 01:49:00,77.0,75.1,29.92,WSW,241,0.0,2.0,94,0.00,,---,0.00,VWS V14.01,2013-06-19 05:49:00,
2013-06-19 01:51:00,77.0,75.1,29.92,WSW,241,0.0,2.0,94,0.00,,---,0.00,VWS V14.01,2013-06-19 05:51:00,
2013-06-19 01:53:00,77.0,75.5,29.92,WSW,241,0.0,2.0,95,0.00,,---,0.00,VWS V14.01,2013-06-19 05:53:00,
2013-06-19 01:54:00,77.0,75.5,29.92,WSW,241,0.0,2.0,95,0.00,,---,0.00,VWS V14.01,2013-06-19 05:54:00,
2013-06-19 01:55:00,77.0,75.5,29.92,WSW,241,0.0,2.0,95,0.00,,---,0.00,VWS V14.01,2013-06-19 05:55:00,
2013-06-19 01:56:00,77.0,75.5,29.92,WSW,241,0.0,2.0,95,0.00,,---,0.00,VWS V14.01,2013-06-19 05:56:00,
2013-06-19 01:58:00,77.0,75.5,29.92,WSW,241,0.0,2.0,95,0.00,,---,0.00,VWS V14.01,2013-06-19 05:58:00,
2013-06-19 01:59:00,76.8,75.3,29.92,WSW,241,0.0,2.0,95,0.00,,---,0.00,VWS V14.01,2013-06-19 05:59:00,
2013-06-19 02:01:00,76.8,75.3,29.92,WSW,241,0.0,2.0,95,0.00,,---,0.00,VWS V14.01,2013-06-19 06:01:00,
2013-06-19 02:02:00,76.8,75.3,29.92,WSW,241,0.0,2.0,95,0.00,,---,0.00,VWS V14.01,2013-06-19 06:02:00,
2013-06-19 02:03:00,76.8,75.3,29.92,WSW,241,0.0,2.0,95,0.00,,---,0.00,VWS V14.01,2013-06-19 06:03:00,
2013-06-19 02:06:00,76.8,75.3,29.91,WSW,241,0.0,0.0,95,0.00,,---,0.00,VWS V14.01,2013-06-19 06:06:00,
2013-06-19 02:08:00,76.7,75.2,29.91,WSW,241,0.0,1.0,95,0.00,,---,0.00,VWS V14.01,2013-06-19 06:08:00,
2013-06-19 02:09:00,76.7,75.2,29.91,WSW,241,0.0,1.0,95,0.00,,---,0.00,VWS V14.01,2013-06-19 06:09:00,
2013-06-19 02:11:00,76.8,75.3,29.91,WSW,241,0.0,1.0,95,0.00,,---,0.00,VWS V14.01,2013-06-19 06:11:00,
2013-06-19 02:12:00,76.8,75.3,29.91,WSW,241,0.0,1.0,95,0.00,,---,0.00,VWS V14.01,2013-06-19 06:12:00,
2013-06-19 02:14:00,76.8,75.3,29.91,WSW,241,1.0,1.0,95,0.00,,---,0.00,VWS V14.01,2013-06-19 06:14:00,
2013-06-19 02:15:00,76.8,75.3,29.91,WSW,241,0.0,1.0,95,0.00,,---,0.00,VWS V14.01,2013-06-19 06:15:00,
2013-06-19 02:17:00,76.8,75.3,29.91,WSW,241,0.0,1.0,95,0.00,,---,0.00,VWS V14.01,2013-06-19 06:17:00,
2013-06-19 02:19:00,76.8,75.3,29.92,WSW,241,0.0,1.0,95,0.00,,---,0.00,VWS V14.01,2013-06-19 06:19:00,
2013-06-19 02:20:00,76.8,75.3,29.92,WSW,241,0.0,1.0,95,0.00,,---,0.00,VWS V14.01,2013-06-19 06:20:00,
2013-06-19 02:22:00,77.0,75.5,29.92,WSW,241,0.0,1.0,95,0.00,,---,0.00,VWS V14.01,2013-06-19 06:22:00,
2013-06-19 02:23:00,77.0,75.5,29.92,WSW,241,0.0,1.0,95,0.00,,---,0.00,VWS V14.01,2013-06-19 06:23:00,
2013-06-19 02:25:00,77.0,75.5,29.92,WSW,241,0.0,1.0,95,0.00,,---,0.00,VWS V14.01,2013-06-19 06:25:00,
2013-06-19 02:27:00,77.0,75.5,29.92,WSW,241,0.0,1.0,95,0.00,,---,0.00,VWS V14.01,2013-06-19 06:27:00,
2013-06-19 02:28:00,77.0,75.5,29.92,WSW,241,0.0,1.0,95,0.00,,---,0.00,VWS V14.01,2013-06-19 06:28:00,
2013-06-19 02:32:00,77.2,76.0,29.92,WSW,241,0.0,1.0,96,0.00,,---,0.00,VWS V14.01,2013-06-19 06:32:00,
2013-06-19 02:34:00,77.2,75.7,29.94,WSW,241,0.0,1.0,95,0.00,,---,0.00,VWS V14.01,2013-06-19 06:34:00,
2013-06-19 02:35:00,77.2,76.0,29.94,WSW,241,0.0,1.0,96,0.00,,---,0.00,VWS V14.01,2013-06-19 06:35:00,
2013-06-19 02:37:00,77.2,76.0,29.94,WSW,241,0.0,1.0,96,0.00,,---,0.00,VWS V14.01,2013-06-19 06:37:00,
2013-06-19 02:39:00,77.2,76.0,29.94,WSW,241,0.0,1.0,96,0.00,,---,0.00,VWS V14.01,2013-06-19 06:39:00,
2013-06-19 02:40:00,77.2,76.0,29.94,WSW,241,0.0,1.0,96,0.00,,---,0.00,VWS V14.01,2013-06-19 06:40:00,
2013-06-19 02:41:00,77.2,76.0,29.94,WSW,241,0.0,1.0,96,0.00,,---,0.00,VWS V14.01,2013-06-19 06:41:00,
2013-06-19 02:42:00,77.2,76.0,29.94,WSW,241,0.0,1.0,96,0.00,,---,0.00,VWS V14.01,2013-06-19 06:42:00,
2013-06-19 02:43:00,77.2,76.0,29.94,WSW,241,0.0,1.0,96,0.00,,---,0.00,VWS V14.01,2013-06-19 06:43:00,
2013-06-19 02:45:00,77.2,76.0,29.94,WSW,241,0.0,1.0,96,0.00,,---,0.00,VWS V14.01,2013-06-19 06:45:00,
2013-06-19 02:46:00,77.2,76.0,29.94,WSW,241,0.0,1.0,96,0.00,,---,0.00,VWS V14.01,2013-06-19 06:46:00,
2013-06-19 02:47:00,77.2,76.0,29.94,WSW,241,0.0,1.0,96,0.00,,---,0.00,VWS V14.01,2013-06-19 06:47:00,
2013-06-19 02:48:00,77.2,76.0,29.94,WSW,241,0.0,1.0,96,0.00,,---,0.00,VWS V14.01,2013-06-19 06:48:00,
2013-06-19 02:50:00,77.4,76.2,29.94,WSW,241,0.0,1.0,96,0.00,,---,0.00,VWS V14.01,2013-06-19 06:50:00,
2013-06-19 02:52:00,77.4,76.2,29.94,WSW,241,0.0,1.0,96,0.00,,---,0.00,VWS V14.01,2013-06-19 06:52:00,
2013-06-19 02:54:00,77.4,76.2,29.94,WSW,240,0.0,1.0,96,0.00,,---,0.00,VWS V14.01,2013-06-19 06:54:00,
2013-06-19 02:55:00,77.4,76.2,29.94,WSW,240,0.0,1.0,96,0.00,,---,0.00,VWS V14.01,2013-06-19 06:55:00,
2013-06-19 02:56:00,77.4,76.2,29.94,WSW,240,0.0,1.0,96,0.00,,---,0.00,VWS V14.01,2013-06-19 06:56:00,
2013-06-19 02:57:00,77.4,76.2,29.94,WSW,240,0.0,1.0,96,0.00,,---,0.00,VWS V14.01,2013-06-19 06:57:00,
2013-06-19 03:01:00,77.6,76.4,29.94,WSW,240,0.0,1.0,96,0.00,,---,0.00,VWS V14.01,2013-06-19 07:01:00,
2013-06-19 03:02:00,77.6,76.4,29.94,WSW,240,1.0,1.0,96,0.00,,---,0.00,VWS V14.01,2013-06-19 07:02:00,
2013-06-19 03:03:00,77.6,76.4,29.94,WSW,240,0.0,1.0,96,0.00,,---,0.00,VWS V14.01,2013-06-19 07:03:00,
2013-06-19 03:07:00,77.6,76.4,29.93,WSW,240,0.0,0.0,96,0.00,,---,0.00,VWS V14.01,2013-06-19 07:07:00,
2013-06-19 03:09:00,77.6,76.4,29.93,WSW,239,0.0,0.0,96,0.00,,---,0.00,VWS V14.01,2013-06-19 07:09:00,
2013-06-19 03:10:00,77.6,76.4,29.93,WSW,239,0.0,0.0,96,0.00,,---,0.00,VWS V14.01,2013-06-19 07:10:00,
2013-06-19 03:12:00,77.7,76.5,29.93,WSW,239,0.0,0.0,96,0.00,,---,0.00,VWS V14.01,2013-06-19 07:12:00,
2013-06-19 03:14:00,77.7,76.5,29.93,SW,234,2.0,2.0,96,0.00,,---,0.00,VWS V14.01,2013-06-19 07:14:00,
2013-06-19 03:15:00,77.7,76.5,29.93,SW,234,0.0,2.0,96,0.00,,---,0.00,VWS V14.01,2013-06-19 07:15:00,
2013-06-19 03:16:00,77.7,76.5,29.93,SW,234,0.0,2.0,96,0.00,,---,0.00,VWS V14.01,2013-06-19 07:16:00,
2013-06-19 03:18:00,77.7,76.5,29.92,SW,234,0.0,2.0,96,0.00,,---,0.00,VWS V14.01,2013-06-19 07:18:00,
2013-06-19 03:21:00,77.7,76.5,29.92,SW,234,0.0,2.0,96,0.00,,---,0.00,VWS V14.01,2013-06-19 07:21:00,
2013-06-19 03:23:00,77.7,76.5,29.92,SW,234,0.0,2.0,96,0.00,,---,0.00,VWS V14.01,2013-06-19 07:23:00,
2013-06-19 03:25:00,77.7,76.5,29.92,SW,234,0.0,2.0,96,0.00,,---,0.00,VWS V14.01,2013-06-19 07:25:00,
2013-06-19 03:27:00,77.7,76.5,29.92,SW,234,0.0,2.0,96,0.00,,---,0.00,VWS V14.01,2013-06-19 07:27:00,
2013-06-19 03:30:00,77.7,76.5,29.92,SW,234,0.0,2.0,96,0.00,,---,0.00,VWS V14.01,2013-06-19 07:30:00,
2013-06-19 03:31:00,77.7,76.5,29.92,SW,234,0.0,2.0,96,0.00,,---,0.00,VWS V14.01,2013-06-19 07:31:00,
2013-06-19 03:34:00,77.7,76.5,29.92,SW,234,0.0,2.0,96,0.00,,---,0.00,VWS V14.01,2013-06-19 07:34:00,
2013-06-19 03:35:00,77.7,76.5,29.92,SW,234,0.0,2.0,96,0.00,,---,0.00,VWS V14.01,2013-06-19 07:35:00,
2013-06-19 03:37:00,77.7,76.5,29.92,SW,234,0.0,2.0,96,0.00,,---,0.00,VWS V14.01,2013-06-19 07:37:00,
2013-06-19 03:38:00,77.7,76.5,29.92,SW,234,0.0,2.0,96,0.00,,---,0.00,VWS V14.01,2013-06-19 07:38:00,
2013-06-19 03:39:00,77.7,76.5,29.92,SW,234,0.0,2.0,96,0.00,,---,0.00,VWS V14.01,2013-06-19 07:39:00,
2013-06-19 03:40:00,77.7,76.5,29.92,SW,234,0.0,2.0,96,0.00,,---,0.00,VWS V14.01,2013-06-19 07:40:00,
2013-06-19 03:43:00,77.6,76.4,29.92,SW,234,0.0,2.0,96,0.00,,---,0.00,VWS V14.01,2013-06-19 07:43:00,
2013-06-19 03:44:00,77.6,76.4,29.92,SW,234,0.0,2.0,96,0.00,,---,0.00,VWS V14.01,2013-06-19 07:44:00,
2013-06-19 03:45:00,77.6,76.4,29.92,SW,234,0.0,2.0,96,0.00,,---,0.00,VWS V14.01,2013-06-19 07:45:00,
2013-06-19 03:47:00,77.6,76.4,29.92,SW,234,0.0,2.0,96,0.00,,---,0.00,VWS V14.01,2013-06-19 07:47:00,
2013-06-19 03:48:00,77.6,76.4,29.92,SW,234,0.0,2.0,96,0.00,,---,0.00,VWS V14.01,2013-06-19 07:48:00,
2013-06-19 03:49:00,77.6,76.4,29.92,SW,234,0.0,2.0,96,0.00,,---,0.00,VWS V14.01,2013-06-19 07:49:00,
2013-06-19 03:50:00,77.6,76.4,29.92,SW,234,0.0,2.0,96,0.00,,---,0.00,VWS V14.01,2013-06-19 07:50:00,
2013-06-19 03:51:00,77.6,76.4,29.92,SSW,205,0.0,2.0,96,0.00,,---,0.00,VWS V14.01,2013-06-19 07:51:00,
2013-06-19 03:53:00,77.6,76.4,29.92,SSW,205,1.0,4.0,96,0.00,,---,0.00,VWS V14.01,2013-06-19 07:53:00,
2013-06-19 03:55:00,77.7,76.8,29.92,SE,125,5.0,6.0,97,0.00,,---,0.00,VWS V14.01,2013-06-19 07:55:00,
2013-06-19 03:57:00,77.7,76.8,29.92,ESE,112,5.0,7.0,97,0.00,,---,0.00,VWS V14.01,2013-06-19 07:57:00,
2013-06-19 03:58:00,77.7,76.5,29.92,ESE,110,1.0,7.0,96,0.00,,---,0.00,VWS V14.01,2013-06-19 07:58:00,
2013-06-19 04:00:00,77.7,76.5,29.92,ESE,110,0.0,7.0,96,0.00,,---,0.00,VWS V14.01,2013-06-19 08:00:00,
2013-06-19 04:01:00,77.7,76.5,29.92,ESE,110,0.0,7.0,96,0.00,,---,0.00,VWS V14.01,2013-06-19 08:01:00,
2013-06-19 04:02:00,77.7,76.5,29.92,ESE,110,0.0,7.0,96,0.00,,---,0.00,VWS V14.01,2013-06-19 08:02:00,
2013-06-19 04:03:00,77.7,76.5,29.93,South,189,0.0,7.0,96,0.00,,---,0.00,VWS V14.01,2013-06-19 08:03:00,
2013-06-19 04:06:00,77.7,76.5,29.93,South,174,0.0,5.0,96,0.00,,---,0.00,VWS V14.01,2013-06-19 08:06:00,
2013-06-19 04:07:00,77.7,76.5,29.93,South,174,0.0,5.0,96,0.00,,---,0.00,VWS V14.01,2013-06-19 08:07:00,
2013-06-19 04:08:00,77.7,76.5,29.93,South,181,0.0,5.0,96,0.00,,---,0.00,VWS V14.01,2013-06-19 08:08:00,
2013-06-19 04:09:00,77.6,76.4,29.93,South,181,0.0,5.0,96,0.00,,---,0.00,VWS V14.01,2013-06-19 08:09:00,
2013-06-19 04:10:00,77.6,76.4,29.93,South,181,0.0,5.0,96,0.00,,---,0.00,VWS V14.01,2013-06-19 08:10:00,
2013-06-19 04:11:00,77.6,76.4,29.93,South,181,0.0,5.0,96,0.00,,---,0.00,VWS V14.01,2013-06-19 08:11:00,
2013-06-19 04:13:00,77.6,76.4,29.93,South,181,0.0,5.0,96,0.00,,---,0.00,VWS V14.01,2013-06-19 08:13:00,
2013-06-19 04:15:00,77.6,76.4,29.93,SSE,168,0.0,5.0,96,0.00,,---,0.00,VWS V14.01,2013-06-19 08:15:00,
2013-06-19 04:16:00,77.6,76.4,29.93,SSE,168,0.0,5.0,96,0.00,,---,0.00,VWS V14.01,2013-06-19 08:16:00,
2013-06-19 04:19:00,77.6,76.4,29.93,SSE,162,5.0,5.0,96,0.00,,---,0.00,VWS V14.01,2013-06-19 08:19:00,
2013-06-19 04:21:00,77.4,76.2,29.93,SSE,147,0.0,6.0,96,0.00,,---,0.00,VWS V14.01,2013-06-19 08:21:00,
2013-06-19 04:22:00,77.4,76.2,29.93,SE,146,0.0,6.0,96,0.00,,---,0.00,VWS V14.01,2013-06-19 08:22:00,
2013-06-19 04:24:00,77.4,75.9,29.93,SSE,154,4.0,6.0,95,0.00,,---,0.00,VWS V14.01,2013-06-19 08:24:00,
2013-06-19 04:27:00,77.4,75.9,29.93,SSE,155,0.0,6.0,95,0.00,,---,0.00,VWS V14.01,2013-06-19 08:27:00,
2013-06-19 04:28:00,77.2,75.7,29.93,SSE,147,0.0,6.0,95,0.00,,---,0.00,VWS V14.01,2013-06-19 08:28:00,
2013-06-19 04:29:00,77.2,75.7,29.93,SE,140,0.0,6.0,95,0.00,,---,0.00,VWS V14.01,2013-06-19 08:29:00,
2013-06-19 04:31:00,77.2,75.7,29.93,SE,140,0.0,6.0,95,0.00,,---,0.00,VWS V14.01,2013-06-19 08:31:00,
2013-06-19 04:33:00,77.2,75.7,29.93,SE,140,0.0,6.0,95,0.00,,---,0.00,VWS V14.01,2013-06-19 08:33:00,
2013-06-19 04:36:00,77.0,75.5,29.93,SE,140,0.0,6.0,95,0.00,,---,0.00,VWS V14.01,2013-06-19 08:36:00,
2013-06-19 04:38:00,77.0,75.5,29.93,SE,140,0.0,6.0,95,0.00,,---,0.00,VWS V14.01,2013-06-19 08:38:00,
2013-06-19 04:39:00,77.0,75.5,29.93,SE,141,0.0,6.0,95,0.00,,---,0.00,VWS V14.01,2013-06-19 08:39:00,
2013-06-19 04:42:00,76.8,75.3,29.93,SE,141,0.0,6.0,95,0.00,,---,0.00,VWS V14.01,2013-06-19 08:42:00,
2013-06-19 04:44:00,76.8,75.3,29.93,SE,141,0.0,6.0,95,0.00,,---,0.00,VWS V14.01,2013-06-19 08:44:00,
2013-06-19 04:45:00,76.8,75.3,29.93,SE,141,0.0,6.0,95,0.00,,---,0.00,VWS V14.01,2013-06-19 08:45:00,
2013-06-19 04:46:00,76.8,75.3,29.93,SE,141,0.0,6.0,95,0.00,,---,0.00,VWS V14.01,2013-06-19 08:46:00,
2013-06-19 04:47:00,76.8,75.3,29.93,SE,141,0.0,6.0,95,0.00,,---,0.00,VWS V14.01,2013-06-19 08:47:00,
2013-06-19 04:49:00,76.8,75.3,29.92,SE,141,0.0,6.0,95,0.00,,---,0.00,VWS V14.01,2013-06-19 08:49:00,
2013-06-19 04:51:00,76.7,75.2,29.92,SE,141,0.0,6.0,95,0.00,,---,0.00,VWS V14.01,2013-06-19 08:51:00,
2013-06-19 04:52:00,76.7,75.2,29.92,SE,141,0.0,6.0,95,0.00,,---,0.00,VWS V14.01,2013-06-19 08:52:00,
2013-06-19 04:53:00,76.7,75.2,29.92,SE,141,0.0,6.0,95,0.00,,---,0.00,VWS V14.01,2013-06-19 08:53:00,
2013-06-19 04:56:00,76.7,75.2,29.92,SE,141,0.0,6.0,95,0.00,,---,0.00,VWS V14.01,2013-06-19 08:56:00,
2013-06-19 04:58:00,76.7,75.2,29.92,SE,141,0.0,6.0,95,0.00,,---,0.00,VWS V14.01,2013-06-19 08:58:00,
2013-06-19 04:59:00,76.7,75.2,29.92,SE,141,0.0,6.0,95,0.00,,---,0.00,VWS V14.01,2013-06-19 08:59:00,
2013-06-19 05:02:00,76.7,75.2,29.92,SE,141,0.0,6.0,95,0.00,,---,0.00,VWS V14.01,2013-06-19 09:02:00,
2013-06-19 05:04:00,76.7,75.2,29.91,SE,141,0.0,6.0,95,0.00,,---,0.00,VWS V14.01,2013-06-19 09:04:00,
2013-06-19 05:05:00,76.7,75.2,29.91,SE,141,0.0,0.0,95,0.01,,---,0.01,VWS V14.01,2013-06-19 09:05:00,
2013-06-19 05:07:00,76.7,75.2,29.91,SE,141,0.0,0.0,95,0.01,,---,0.01,VWS V14.01,2013-06-19 09:07:00,
2013-06-19 05:09:00,76.5,75.0,29.91,SE,141,0.0,0.0,95,0.01,,---,0.01,VWS V14.01,2013-06-19 09:09:00,
2013-06-19 05:11:00,76.5,75.0,29.91,SE,141,0.0,0.0,95,0.01,,---,0.01,VWS V14.01,2013-06-19 09:11:00,
2013-06-19 05:14:00,76.5,75.0,29.91,SE,141,0.0,0.0,95,0.01,,---,0.01,VWS V14.01,2013-06-19 09:14:00,
2013-06-19 05:15:00,76.5,75.0,29.91,SE,141,0.0,0.0,95,0.01,,---,0.01,VWS V14.01,2013-06-19 09:15:00,
2013-06-19 05:16:00,76.5,75.0,29.91,SE,141,0.0,0.0,95,0.01,,---,0.01,VWS V14.01,2013-06-19 09:16:00,
2013-06-19 05:17:00,76.5,75.3,29.91,SE,141,0.0,0.0,96,0.01,,---,0.01,VWS V14.01,2013-06-19 09:17:00,
2013-06-19 05:18:00,76.5,75.3,29.90,SE,141,0.0,0.0,96,0.01,,---,0.01,VWS V14.01,2013-06-19 09:18:00,
2013-06-19 05:22:00,76.3,75.1,29.90,SE,141,0.0,0.0,96,0.01,,---,0.01,VWS V14.01,2013-06-19 09:22:00,
2013-06-19 05:23:00,76.3,75.1,29.90,SE,141,0.0,0.0,96,0.01,,---,0.01,VWS V14.01,2013-06-19 09:23:00,
2013-06-19 05:25:00,76.3,75.1,29.90,SE,141,0.0,0.0,96,0.01,,---,0.01,VWS V14.01,2013-06-19 09:25:00,
2013-06-19 05:27:00,76.1,74.9,29.90,SE,141,0.0,0.0,96,0.01,,---,0.01,VWS V14.01,2013-06-19 09:27:00,
2013-06-19 05:28:00,76.1,74.9,29.90,SE,141,0.0,0.0,96,0.01,,---,0.01,VWS V14.01,2013-06-19 09:28:00,
2013-06-19 05:29:00,76.1,74.9,29.90,SE,141,0.0,0.0,96,0.01,,---,0.01,VWS V14.01,2013-06-19 09:29:00,
2013-06-19 05:30:00,76.1,74.9,29.90,SE,141,0.0,0.0,96,0.01,,---,0.01,VWS V14.01,2013-06-19 09:30:00,
2013-06-19 05:31:00,76.1,74.9,29.90,SE,141,0.0,0.0,96,0.01,,---,0.01,VWS V14.01,2013-06-19 09:31:00,
2013-06-19 05:34:00,76.0,74.8,29.91,SE,141,0.0,0.0,96,0.01,,---,0.01,VWS V14.01,2013-06-19 09:34:00,
2013-06-19 05:35:00,76.0,74.8,29.91,SE,141,0.0,0.0,96,0.01,,---,0.01,VWS V14.01,2013-06-19 09:35:00,
2013-06-19 05:36:00,76.0,74.8,29.91,SE,141,0.0,0.0,96,0.01,,---,0.01,VWS V14.01,2013-06-19 09:36:00,
2013-06-19 05:41:00,76.0,74.8,29.91,SE,141,0.0,0.0,96,0.01,,---,0.01,VWS V14.01,2013-06-19 09:41:00,
2013-06-19 05:42:00,75.8,74.6,29.91,SE,141,0.0,0.0,96,0.01,,---,0.01,VWS V14.01,2013-06-19 09:42:00,
2013-06-19 05:44:00,75.8,74.6,29.91,SE,141,0.0,0.0,96,0.01,,---,0.01,VWS V14.01,2013-06-19 09:44:00,
2013-06-19 05:47:00,75.8,74.6,29.91,SE,141,0.0,0.0,96,0.01,,---,0.01,VWS V14.01,2013-06-19 09:47:00,
2013-06-19 05:48:00,75.8,74.6,29.91,SE,141,0.0,0.0,96,0.01,,---,0.01,VWS V14.01,2013-06-19 09:48:00,
2013-06-19 05:49:00,75.8,74.6,29.91,SE,141,0.0,0.0,96,0.01,,---,0.01,VWS V14.01,2013-06-19 09:49:00,
2013-06-19 05:50:00,75.8,74.6,29.91,SE,141,0.0,0.0,96,0.01,,---,0.01,VWS V14.01,2013-06-19 09:50:00,
2013-06-19 05:52:00,75.8,74.6,29.91,SE,141,0.0,0.0,96,0.01,,---,0.01,VWS V14.01,2013-06-19 09:52:00,
2013-06-19 05:53:00,75.8,74.6,29.91,SE,141,0.0,0.0,96,0.01,,---,0.01,VWS V14.01,2013-06-19 09:53:00,
2013-06-19 05:54:00,75.8,74.6,29.91,SE,141,0.0,0.0,96,0.01,,---,0.01,VWS V14.01,2013-06-19 09:54:00,
2013-06-19 05:55:00,75.8,74.6,29.91,SE,141,0.0,0.0,96,0.01,,---,0.01,VWS V14.01,2013-06-19 09:55:00,
2013-06-19 05:58:00,75.8,74.6,29.91,SE,141,0.0,0.0,96,0.01,,---,0.01,VWS V14.01,2013-06-19 09:58:00,
2013-06-19 05:59:00,75.6,74.4,29.91,SE,141,0.0,0.0,96,0.01,,---,0.01,VWS V14.01,2013-06-19 09:59:00,
2013-06-19 06:01:00,75.6,74.4,29.91,SE,141,0.0,0.0,96,0.01,,---,0.01,VWS V14.01,2013-06-19 10:01:00,
2013-06-19 06:02:00,75.6,74.4,29.91,SE,141,0.0,0.0,96,0.01,,---,0.01,VWS V14.01,2013-06-19 10:02:00,
2013-06-19 06:03:00,75.6,74.4,29.91,SE,141,0.0,0.0,96,0.01,,---,0.01,VWS V14.01,2013-06-19 10:03:00,
2013-06-19 06:04:00,75.4,74.2,29.91,SE,141,0.0,0.0,96,0.01,,---,0.01,VWS V14.01,2013-06-19 10:04:00,
2013-06-19 06:05:00,75.4,74.2,29.91,SE,141,0.0,0.0,96,0.01,,---,0.01,VWS V14.01,2013-06-19 10:05:00,
2013-06-19 06:06:00,75.4,74.2,29.91,SE,141,0.0,0.0,96,0.01,,---,0.01,VWS V14.01,2013-06-19 10:06:00,
2013-06-19 06:08:00,75.4,74.5,29.91,SE,141,0.0,0.0,97,0.01,,---,0.01,VWS V14.01,2013-06-19 10:08:00,
2013-06-19 06:10:00,75.4,74.5,29.91,SE,141,0.0,0.0,97,0.01,,---,0.01,VWS V14.01,2013-06-19 10:10:00,
2013-06-19 06:11:00,75.4,74.5,29.91,SE,141,0.0,0.0,97,0.01,,---,0.01,VWS V14.01,2013-06-19 10:11:00,
2013-06-19 06:12:00,75.4,74.5,29.91,SE,141,0.0,0.0,97,0.01,,---,0.01,VWS V14.01,2013-06-19 10:12:00,
2013-06-19 06:13:00,75.4,74.5,29.91,SE,141,0.0,0.0,97,0.01,,---,0.01,VWS V14.01,2013-06-19 10:13:00,
2013-06-19 06:16:00,75.4,74.5,29.91,SE,141,0.0,0.0,97,0.01,,---,0.01,VWS V14.01,2013-06-19 10:16:00,
2013-06-19 06:17:00,75.4,74.5,29.91,SE,141,0.0,0.0,97,0.01,,---,0.01,VWS V14.01,2013-06-19 10:17:00,
2013-06-19 06:19:00,75.4,74.5,29.92,SE,141,0.0,0.0,97,0.01,,---,0.01,VWS V14.01,2013-06-19 10:19:00,
2013-06-19 06:22:00,75.3,74.4,29.92,SE,141,0.0,0.0,97,0.01,,---,0.01,VWS V14.01,2013-06-19 10:22:00,
2013-06-19 06:23:00,75.3,74.4,29.92,SE,141,0.0,0.0,97,0.01,,---,0.01,VWS V14.01,2013-06-19 10:23:00,
2013-06-19 06:25:00,75.3,74.4,29.92,SE,141,0.0,0.0,97,0.01,,---,0.01,VWS V14.01,2013-06-19 10:25:00,
2013-06-19 06:28:00,75.3,74.4,29.92,SE,141,0.0,0.0,97,0.01,,---,0.01,VWS V14.01,2013-06-19 10:28:00,
2013-06-19 06:30:00,75.3,74.4,29.92,SE,141,0.0,0.0,97,0.01,,---,0.01,VWS V14.01,2013-06-19 10:30:00,
2013-06-19 06:31:00,75.3,74.4,29.92,SE,141,0.0,0.0,97,0.01,,---,0.01,VWS V14.01,2013-06-19 10:31:00,
2013-06-19 06:33:00,75.3,74.4,29.92,SE,141,0.0,0.0,97,0.01,,---,0.01,VWS V14.01,2013-06-19 10:33:00,
2013-06-19 06:35:00,75.1,74.2,29.92,SE,141,0.0,0.0,97,0.01,,---,0.01,VWS V14.01,2013-06-19 10:35:00,
2013-06-19 06:36:00,75.1,74.2,29.92,SE,141,0.0,0.0,97,0.01,,---,0.01,VWS V14.01,2013-06-19 10:36:00,
2013-06-19 06:38:00,75.1,74.2,29.92,SE,141,0.0,0.0,97,0.01,,---,0.01,VWS V14.01,2013-06-19 10:38:00,
2013-06-19 06:40:00,75.1,74.2,29.92,SE,141,0.0,0.0,97,0.01,,---,0.01,VWS V14.01,2013-06-19 10:40:00,
2013-06-19 06:41:00,75.1,74.2,29.92,SE,141,0.0,0.0,97,0.01,,---,0.01,VWS V14.01,2013-06-19 10:41:00,
2013-06-19 06:42:00,74.9,74.0,29.92,SE,141,0.0,0.0,97,0.01,,---,0.01,VWS V14.01,2013-06-19 10:42:00,
2013-06-19 06:44:00,74.9,74.0,29.92,SE,141,0.0,0.0,97,0.01,,---,0.01,VWS V14.01,2013-06-19 10:44:00,
2013-06-19 06:48:00,74.9,74.0,29.92,SE,141,0.0,0.0,97,0.01,,---,0.01,VWS V14.01,2013-06-19 10:48:00,
2013-06-19 06:49:00,74.9,74.0,29.92,SE,141,0.0,0.0,97,0.01,,---,0.01,VWS V14.01,2013-06-19 10:49:00,
2013-06-19 06:50:00,74.7,73.8,29.92,SE,141,0.0,0.0,97,0.01,,---,0.01,VWS V14.01,2013-06-19 10:50:00,
2013-06-19 06:53:00,74.7,73.8,29.92,SE,141,0.0,0.0,97,0.01,,---,0.01,VWS V14.01,2013-06-19 10:53:00,
2013-06-19 06:54:00,74.7,73.8,29.92,SE,141,0.0,0.0,97,0.01,,---,0.01,VWS V14.01,2013-06-19 10:54:00,
2013-06-19 06:55:00,74.7,73.8,29.92,SE,141,0.0,0.0,97,0.01,,---,0.01,VWS V14.01,2013-06-19 10:55:00,
2013-06-19 06:56:00,74.7,73.8,29.92,SE,141,0.0,0.0,97,0.01,,---,0.01,VWS V14.01,2013-06-19 10:56:00,
2013-06-19 06:58:00,74.7,73.8,29.92,SE,141,0.0,0.0,97,0.01,,---,0.01,VWS V14.01,2013-06-19 10:58:00,
2013-06-19 07:00:00,74.9,74.0,29.92,SE,141,0.0,0.0,97,0.01,,---,0.01,VWS V14.01,2013-06-19 11:00:00,
2013-06-19 07:01:00,74.9,74.0,29.92,SE,141,0.0,0.0,97,0.01,,---,0.01,VWS V14.01,2013-06-19 11:01:00,
2013-06-19 07:02:00,74.9,74.0,29.92,SE,141,0.0,0.0,97,0.01,,---,0.01,VWS V14.01,2013-06-19 11:02:00,
2013-06-19 07:04:00,74.9,74.0,29.92,SE,141,0.0,0.0,97,0.01,,---,0.01,VWS V14.01,2013-06-19 11:04:00,
2013-06-19 07:06:00,75.1,74.2,29.92,SE,141,0.0,0.0,97,0.00,,---,0.01,VWS V14.01,2013-06-19 11:06:00,
2013-06-19 07:07:00,75.1,74.2,29.92,SE,141,0.0,0.0,97,0.00,,---,0.01,VWS V14.01,2013-06-19 11:07:00,
2013-06-19 07:11:00,75.3,74.4,29.92,SE,141,0.0,0.0,97,0.00,,---,0.01,VWS V14.01,2013-06-19 11:11:00,
2013-06-19 07:13:00,75.3,74.4,29.92,SE,141,0.0,0.0,97,0.00,,---,0.01,VWS V14.01,2013-06-19 11:13:00,
2013-06-19 07:16:00,75.1,74.2,29.92,SE,141,0.0,0.0,97,0.00,,---,0.01,VWS V14.01,2013-06-19 11:16:00,
2013-06-19 07:17:00,75.1,74.2,29.92,SE,141,0.0,0.0,97,0.00,,---,0.01,VWS V14.01,2013-06-19 11:17:00,
2013-06-19 07:18:00,75.1,74.2,29.92,SE,141,0.0,0.0,97,0.00,,---,0.01,VWS V14.01,2013-06-19 11:18:00,
2013-06-19 07:21:00,75.1,74.2,29.93,SE,141,0.0,0.0,97,0.00,,---,0.01,VWS V14.01,2013-06-19 11:21:00,
2013-06-19 07:22:00,75.1,74.2,29.93,SE,141,0.0,0.0,97,0.00,,---,0.01,VWS V14.01,2013-06-19 11:22:00,
2013-06-19 07:23:00,75.1,74.2,29.93,SE,141,0.0,0.0,97,0.00,,---,0.01,VWS V14.01,2013-06-19 11:23:00,
2013-06-19 07:24:00,75.1,74.2,29.93,SE,141,0.0,0.0,97,0.00,,---,0.01,VWS V14.01,2013-06-19 11:24:00,
2013-06-19 07:26:00,75.3,74.4,29.93,SE,141,0.0,0.0,97,0.00,,---,0.01,VWS V14.01,2013-06-19 11:26:00,
2013-06-19 07:28:00,75.4,74.5,29.93,SE,141,0.0,0.0,97,0.00,,---,0.01,VWS V14.01,2013-06-19 11:28:00,
2013-06-19 07:30:00,75.4,74.8,29.93,SE,141,0.0,0.0,98,0.00,,---,0.01,VWS V14.01,2013-06-19 11:30:00,
2013-06-19 07:32:00,75.8,75.2,29.93,SE,141,0.0,0.0,98,0.00,,---,0.01,VWS V14.01,2013-06-19 11:32:00,
2013-06-19 07:33:00,75.8,74.9,29.93,SE,141,0.0,0.0,97,0.00,,---,0.01,VWS V14.01,2013-06-19 11:33:00,
2013-06-19 07:34:00,75.8,74.9,29.93,SE,141,0.0,0.0,97,0.00,,---,0.01,VWS V14.01,2013-06-19 11:34:00,
2013-06-19 07:36:00,76.0,75.1,29.93,SE,141,0.0,1.0,97,0.00,,---,0.01,VWS V14.01,2013-06-19 11:36:00,
2013-06-19 07:37:00,76.0,75.1,29.93,SE,141,0.0,1.0,97,0.00,,---,0.01,VWS V14.01,2013-06-19 11:37:00,
2013-06-19 07:38:00,76.1,75.2,29.93,SE,141,0.0,1.0,97,0.00,,---,0.01,VWS V14.01,2013-06-19 11:38:00,
2013-06-19 07:40:00,76.3,75.4,29.93,SE,141,0.0,1.0,97,0.00,,---,0.01,VWS V14.01,2013-06-19 11:40:00,
2013-06-19 07:42:00,76.5,75.6,29.93,SE,141,0.0,1.0,97,0.00,,---,0.01,VWS V14.01,2013-06-19 11:42:00,
2013-06-19 07:44:00,76.7,75.8,29.93,SE,141,0.0,1.0,97,0.00,,---,0.01,VWS V14.01,2013-06-19 11:44:00,
2013-06-19 07:45:00,76.7,75.8,29.93,SE,141,0.0,1.0,97,0.00,,---,0.01,VWS V14.01,2013-06-19 11:45:00,
2013-06-19 07:46:00,76.7,75.8,29.93,SE,141,0.0,1.0,97,0.00,,---,0.01,VWS V14.01,2013-06-19 11:46:00,
2013-06-19 07:50:00,77.2,76.3,29.94,SE,141,0.0,1.0,97,0.00,,---,0.01,VWS V14.01,2013-06-19 11:50:00,
2013-06-19 07:51:00,77.2,76.3,29.94,SE,141,0.0,1.0,97,0.00,,---,0.01,VWS V14.01,2013-06-19 11:51:00,
2013-06-19 07:54:00,77.6,76.4,29.94,SE,141,0.0,1.0,96,0.00,,---,0.01,VWS V14.01,2013-06-19 11:54:00,
2013-06-19 07:56:00,77.7,76.5,29.94,SE,141,0.0,1.0,96,0.00,,---,0.01,VWS V14.01,2013-06-19 11:56:00,
2013-06-19 07:57:00,77.7,76.5,29.94,SE,141,0.0,1.0,96,0.00,,---,0.01,VWS V14.01,2013-06-19 11:57:00,
2013-06-19 07:58:00,77.7,76.2,29.94,SE,141,0.0,1.0,95,0.00,,---,0.01,VWS V14.01,2013-06-19 11:58:00,
2013-06-19 07:59:00,77.7,76.2,29.94,SE,141,0.0,1.0,95,0.00,,---,0.01,VWS V14.01,2013-06-19 11:59:00,
2013-06-19 08:02:00,77.9,76.0,29.94,SE,141,0.0,1.0,94,0.00,,---,0.01,VWS V14.01,2013-06-19 12:02:00,
2013-06-19 08:04:00,78.3,76.4,29.94,SE,141,0.0,1.0,94,0.00,,---,0.01,VWS V14.01,2013-06-19 12:04:00,
2013-06-19 08:05:00,78.3,76.1,29.94,SE,141,0.0,0.0,93,0.00,,---,0.01,VWS V14.01,2013-06-19 12:05:00,
2013-06-19 08:08:00,78.6,76.1,29.94,SE,141,0.0,0.0,92,0.00,,---,0.01,VWS V14.01,2013-06-19 12:08:00,
2013-06-19 08:09:00,78.8,75.9,29.94,SE,141,0.0,0.0,91,0.00,,---,0.01,VWS V14.01,2013-06-19 12:09:00,
2013-06-19 08:10:00,78.8,75.9,29.94,SE,141,0.0,0.0,91,0.00,,---,0.01,VWS V14.01,2013-06-19 12:10:00,
2013-06-19 08:11:00,79.0,76.2,29.94,SE,141,0.0,0.0,91,0.00,,---,0.01,VWS V14.01,2013-06-19 12:11:00,
2013-06-19 08:13:00,79.2,76.0,29.94,SE,141,0.0,0.0,90,0.00,,---,0.01,VWS V14.01,2013-06-19 12:13:00,
2013-06-19 08:14:00,79.4,75.9,29.94,SE,141,0.0,0.0,89,0.00,,---,0.01,VWS V14.01,2013-06-19 12:14:00,
2013-06-19 08:16:00,79.8,75.9,29.94,SE,141,0.0,0.0,88,0.00,,---,0.01,VWS V14.01,2013-06-19 12:16:00,
2013-06-19 08:18:00,80.1,75.5,29.94,SE,141,0.0,0.0,86,0.00,,---,0.01,VWS V14.01,2013-06-19 12:18:00,
2013-06-19 08:19:00,80.1,75.5,29.94,SE,141,0.0,0.0,86,0.00,,---,0.01,VWS V14.01,2013-06-19 12:19:00,
2013-06-19 08:21:00,80.5,75.6,29.94,SE,141,0.0,0.0,85,0.00,,---,0.01,VWS V14.01,2013-06-19 12:21:00,
2013-06-19 08:23:00,80.7,75.8,29.94,SE,141,0.0,0.0,85,0.00,,---,0.01,VWS V14.01,2013-06-19 12:23:00,
2013-06-19 08:25:00,80.9,75.6,29.94,SE,141,0.0,0.0,84,0.00,,---,0.01,VWS V14.01,2013-06-19 12:25:00,
2013-06-19 08:26:00,81.1,75.4,29.94,SE,141,0.0,0.0,83,0.00,,---,0.01,VWS V14.01,2013-06-19 12:26:00,
2013-06-19 08:27:00,81.2,75.2,29.94,SE,141,0.0,0.0,82,0.00,,---,0.01,VWS V14.01,2013-06-19 12:27:00,
2013-06-19 08:29:00,81.4,75.4,29.94,SE,141,0.0,0.0,82,0.00,,---,0.01,VWS V14.01,2013-06-19 12:29:00,
2013-06-19 08:30:00,81.6,75.6,29.94,SE,141,0.0,0.0,82,0.00,,---,0.01,VWS V14.01,2013-06-19 12:30:00,
2013-06-19 08:32:00,82.0,75.2,29.94,SE,141,0.0,0.0,80,0.00,,---,0.01,VWS V14.01,2013-06-19 12:32:00,
2013-06-19 08:33:00,82.2,75.4,29.94,SE,141,0.0,0.0,80,0.00,,---,0.01,VWS V14.01,2013-06-19 12:33:00,
2013-06-19 08:36:00,82.6,75.4,29.94,SE,141,0.0,0.0,79,0.00,,---,0.01,VWS V14.01,2013-06-19 12:36:00,
2013-06-19 08:38:00,82.8,75.6,29.94,SE,141,0.0,0.0,79,0.00,,---,0.01,VWS V14.01,2013-06-19 12:38:00,
2013-06-19 08:39:00,82.8,75.6,29.94,SE,141,0.0,0.0,79,0.00,,---,0.01,VWS V14.01,2013-06-19 12:39:00,
2013-06-19 08:40:00,83.0,75.8,29.94,SE,141,0.0,0.0,79,0.00,,---,0.01,VWS V14.01,2013-06-19 12:40:00,
2013-06-19 08:41:00,83.2,75.6,29.94,SE,141,0.0,0.0,78,0.00,,---,0.01,VWS V14.01,2013-06-19 12:41:00,
2013-06-19 08:43:00,83.6,75.6,29.94,SE,141,0.0,0.0,77,0.00,,---,0.01,VWS V14.01,2013-06-19 12:43:00,
2013-06-19 08:46:00,83.8,75.4,29.94,SE,141,0.0,0.0,76,0.00,,---,0.01,VWS V14.01,2013-06-19 12:46:00,
2013-06-19 08:47:00,83.8,75.4,29.94,SE,141,0.0,0.0,76,0.00,,---,0.01,VWS V14.01,2013-06-19 12:47:00,
2013-06-19 08:48:00,84.1,75.7,29.95,SE,141,0.0,0.0,76,0.00,,---,0.01,VWS V14.01,2013-06-19 12:48:00,
2013-06-19 08:50:00,84.1,75.7,29.95,SE,141,0.0,0.0,76,0.00,,---,0.01,VWS V14.01,2013-06-19 12:50:00,
2013-06-19 08:51:00,84.3,75.1,29.95,SE,141,0.0,0.0,74,0.00,,---,0.01,VWS V14.01,2013-06-19 12:51:00,
2013-06-19 08:53:00,84.5,75.7,29.95,SE,141,0.0,0.0,75,0.00,,---,0.01,VWS V14.01,2013-06-19 12:53:00,
2013-06-19 08:55:00,84.7,75.9,29.95,SE,141,0.0,0.0,75,0.00,,---,0.01,VWS V14.01,2013-06-19 12:55:00,
2013-06-19 08:57:00,84.9,76.1,29.95,SE,141,0.0,0.0,75,0.00,,---,0.01,VWS V14.01,2013-06-19 12:57:00,
2013-06-19 08:59:00,85.1,75.9,29.95,SE,141,0.0,0.0,74,0.00,,---,0.01,VWS V14.01,2013-06-19 12:59:00,
2013-06-19 09:00:00,85.1,75.9,29.95,SE,141,0.0,0.0,74,0.00,,---,0.01,VWS V14.01,2013-06-19 13:00:00,
2013-06-19 09:01:00,85.3,75.7,29.95,SE,141,0.0,2.0,73,0.00,,---,0.01,VWS V14.01,2013-06-19 13:01:00,
2013-06-19 09:03:00,85.3,75.7,29.95,SE,141,0.0,2.0,73,0.00,,---,0.01,VWS V14.01,2013-06-19 13:03:00,
2013-06-19 09:05:00,85.5,76.3,29.95,SE,141,0.0,0.0,74,0.00,,---,0.01,VWS V14.01,2013-06-19 13:05:00,
2013-06-19 09:06:00,85.7,76.5,29.95,SE,141,0.0,0.0,74,0.00,,---,0.01,VWS V14.01,2013-06-19 13:06:00,
2013-06-19 09:08:00,85.9,76.7,29.95,SE,141,0.0,0.0,74,0.00,,---,0.01,VWS V14.01,2013-06-19 13:08:00,
2013-06-19 09:11:00,86.3,76.6,29.95,SE,141,0.0,1.0,73,0.00,,---,0.01,VWS V14.01,2013-06-19 13:11:00,
2013-06-19 09:12:00,86.3,77.0,29.95,SE,141,0.0,1.0,74,0.00,,---,0.01,VWS V14.01,2013-06-19 13:12:00,
2013-06-19 09:13:00,86.5,77.2,29.95,SE,141,0.0,1.0,74,0.00,,---,0.01,VWS V14.01,2013-06-19 13:13:00,
2013-06-19 09:14:00,86.5,76.8,29.95,SE,141,0.0,1.0,73,0.00,,---,0.01,VWS V14.01,2013-06-19 13:14:00,
2013-06-19 09:16:00,86.7,77.0,29.95,SE,141,0.0,1.0,73,0.00,,---,0.01,VWS V14.01,2013-06-19 13:16:00,
2013-06-19 09:17:00,86.7,76.6,29.95,SE,141,0.0,1.0,72,0.00,,---,0.01,VWS V14.01,2013-06-19 13:17:00,
2013-06-19 09:19:00,87.0,76.5,29.95,SE,141,0.0,1.0,71,0.00,,---,0.01,VWS V14.01,2013-06-19 13:19:00,
2013-06-19 09:20:00,87.0,76.9,29.95,SE,141,0.0,1.0,72,0.00,,---,0.01,VWS V14.01,2013-06-19 13:20:00,
2013-06-19 09:21:00,87.0,76.9,29.95,SE,141,0.0,4.0,72,0.00,,---,0.01,VWS V14.01,2013-06-19 13:21:00,
2013-06-19 09:23:00,87.0,76.5,29.95,ESE,110,2.0,4.0,71,0.00,,---,0.01,VWS V14.01,2013-06-19 13:23:00,
2013-06-19 09:25:00,86.7,76.2,29.95,ESE,110,0.0,5.0,71,0.00,,---,0.01,VWS V14.01,2013-06-19 13:25:00,
2013-06-19 09:26:00,86.7,76.6,29.95,ESE,110,0.0,5.0,72,0.00,,---,0.01,VWS V14.01,2013-06-19 13:26:00,
2013-06-19 09:27:00,87.0,77.3,29.95,ESE,110,0.0,5.0,73,0.00,,---,0.01,VWS V14.01,2013-06-19 13:27:00,
2013-06-19 09:30:00,87.2,77.1,29.95,ESE,110,0.0,5.0,72,0.00,,---,0.01,VWS V14.01,2013-06-19 13:30:00,
2013-06-19 09:31:00,87.2,77.1,29.95,ESE,110,0.0,5.0,72,0.00,,---,0.01,VWS V14.01,2013-06-19 13:31:00,
2013-06-19 09:33:00,87.6,77.0,29.95,ESE,109,0.0,5.0,71,0.00,,---,0.01,VWS V14.01,2013-06-19 13:33:00,
2013-06-19 09:35:00,87.8,76.8,29.95,ESE,117,0.0,5.0,70,0.00,,---,0.01,VWS V14.01,2013-06-19 13:35:00,
2013-06-19 09:36:00,87.8,76.8,29.95,ESE,117,0.0,5.0,70,0.00,,---,0.01,VWS V14.01,2013-06-19 13:36:00,
2013-06-19 09:41:00,87.6,76.6,29.95,ESE,117,0.0,5.0,70,0.00,,---,0.01,VWS V14.01,2013-06-19 13:41:00,
2013-06-19 09:42:00,87.6,77.0,29.95,ESE,117,0.0,5.0,71,0.00,,---,0.01,VWS V14.01,2013-06-19 13:42:00,
2013-06-19 09:44:00,87.6,76.6,29.95,ESE,117,0.0,5.0,70,0.00,,---,0.01,VWS V14.01,2013-06-19 13:44:00,
2013-06-19 09:46:00,87.4,76.4,29.95,ESE,117,0.0,5.0,70,0.00,,---,0.01,VWS V14.01,2013-06-19 13:46:00,
2013-06-19 09:48:00,87.4,76.4,29.95,ESE,117,0.0,5.0,70,0.00,,---,0.01,VWS V14.01,2013-06-19 13:48:00,
2013-06-19 09:49:00,87.4,76.4,29.95,ESE,117,0.0,5.0,70,0.00,,---,0.01,VWS V14.01,2013-06-19 13:49:00,
2013-06-19 09:51:00,87.6,77.0,29.95,ESE,117,0.0,5.0,71,0.00,,---,0.01,VWS V14.01,2013-06-19 13:51:00,
2013-06-19 09:52:00,87.6,77.0,29.95,ESE,117,0.0,5.0,71,0.00,,---,0.01,VWS V14.01,2013-06-19 13:52:00,
2013-06-19 09:54:00,87.6,76.6,29.95,ESE,120,2.0,5.0,70,0.00,,---,0.01,VWS V14.01,2013-06-19 13:54:00,
2013-06-19 09:57:00,87.8,76.8,29.95,ESE,119,0.0,5.0,70,0.00,,---,0.01,VWS V14.01,2013-06-19 13:57:00,
2013-06-19 09:58:00,87.8,76.8,29.95,ESE,121,1.0,5.0,70,0.00,,---,0.01,VWS V14.01,2013-06-19 13:58:00,
2013-06-19 10:01:00,88.0,77.0,29.95,East,89,0.0,6.0,70,0.00,,---,0.01,VWS V14.01,2013-06-19 14:01:00,
2013-06-19 10:02:00,88.0,77.0,29.95,East,89,0.0,6.0,70,0.00,,---,0.01,VWS V14.01,2013-06-19 14:02:00,
2013-06-19 10:03:00,87.8,76.8,29.94,East,90,4.0,6.0,70,0.00,,---,0.01,VWS V14.01,2013-06-19 14:03:00,
2013-06-19 10:04:00,87.8,77.2,29.94,ESE,115,5.0,6.0,71,0.00,,---,0.01,VWS V14.01,2013-06-19 14:04:00,
2013-06-19 10:07:00,87.2,77.1,29.94,ESE,116,0.0,4.0,72,0.00,,---,0.01,VWS V14.01,2013-06-19 14:07:00,
2013-06-19 10:09:00,86.7,76.6,29.94,ESE,121,4.0,5.0,72,0.00,,---,0.01,VWS V14.01,2013-06-19 14:09:00,
2013-06-19 10:12:00,86.3,77.0,29.94,ESE,121,0.0,5.0,74,0.00,,---,0.01,VWS V14.01,2013-06-19 14:12:00,
2013-06-19 10:13:00,86.3,77.0,29.94,ESE,121,0.0,5.0,74,0.00,,---,0.01,VWS V14.01,2013-06-19 14:13:00,
2013-06-19 10:14:00,86.5,77.6,29.94,SSE,147,8.0,8.0,75,0.00,,---,0.01,VWS V14.01,2013-06-19 14:14:00,
2013-06-19 10:15:00,86.5,76.8,29.94,ESE,123,7.0,8.0,73,0.00,,---,0.01,VWS V14.01,2013-06-19 14:15:00,
2013-06-19 10:18:00,86.5,76.8,29.94,ESE,117,0.0,8.0,73,0.00,,---,0.01,VWS V14.01,2013-06-19 14:18:00,
2013-06-19 10:19:00,86.3,76.6,29.94,SE,134,3.0,8.0,73,0.00,,---,0.01,VWS V14.01,2013-06-19 14:19:00,
2013-06-19 10:21:00,86.3,76.6,29.94,SE,134,3.0,8.0,73,0.00,,---,0.01,VWS V14.01,2013-06-19 14:21:00,
2013-06-19 10:22:00,86.3,76.6,29.94,SE,134,0.0,8.0,73,0.00,,---,0.01,VWS V14.01,2013-06-19 14:22:00,
2013-06-19 10:24:00,86.5,77.6,29.94,SE,134,0.0,8.0,75,0.00,,---,0.01,VWS V14.01,2013-06-19 14:24:00,
2013-06-19 10:26:00,86.7,77.8,29.94,SE,135,0.0,8.0,75,0.00,,---,0.01,VWS V14.01,2013-06-19 14:26:00,
2013-06-19 10:27:00,87.0,77.3,29.94,SE,135,0.0,8.0,73,0.00,,---,0.01,VWS V14.01,2013-06-19 14:27:00,
2013-06-19 10:31:00,87.6,77.0,29.94,SE,135,0.0,8.0,71,0.00,,---,0.01,VWS V14.01,2013-06-19 14:31:00,
2013-06-19 10:32:00,87.8,77.2,29.94,SE,134,0.0,8.0,71,0.00,,---,0.01,VWS V14.01,2013-06-19 14:32:00,
2013-06-19 10:34:00,88.0,77.4,29.94,SE,135,0.0,8.0,71,0.00,,---,0.01,VWS V14.01,2013-06-19 14:34:00,
2013-06-19 10:37:00,88.0,77.4,29.94,SE,134,0.0,8.0,71,0.00,,---,0.01,VWS V14.01,2013-06-19 14:37:00,
2013-06-19 10:38:00,87.8,77.2,29.94,SE,135,0.0,8.0,71,0.00,,---,0.01,VWS V14.01,2013-06-19 14:38:00,
2013-06-19 10:39:00,87.8,77.2,29.94,SE,135,0.0,8.0,71,0.00,,---,0.01,VWS V14.01,2013-06-19 14:39:00,
2013-06-19 10:42:00,87.8,77.7,29.94,SE,135,0.0,8.0,72,0.00,,---,0.01,VWS V14.01,2013-06-19 14:42:00,
2013-06-19 10:43:00,87.8,77.7,29.94,SE,135,0.0,8.0,72,0.00,,---,0.01,VWS V14.01,2013-06-19 14:43:00,
2013-06-19 10:45:00,87.8,77.7,29.94,SE,135,0.0,8.0,72,0.00,,---,0.01,VWS V14.01,2013-06-19 14:45:00,
2013-06-19 10:48:00,87.6,77.5,29.94,SE,135,0.0,8.0,72,0.00,,---,0.01,VWS V14.01,2013-06-19 14:48:00,
2013-06-19 10:49:00,87.6,77.5,29.94,SE,135,0.0,8.0,72,0.00,,---,0.01,VWS V14.01,2013-06-19 14:49:00,
2013-06-19 10:50:00,87.6,77.0,29.94,SE,135,0.0,8.0,71,0.00,,---,0.01,VWS V14.01,2013-06-19 14:50:00,
2013-06-19 10:54:00,87.2,77.1,29.94,SE,135,2.0,8.0,72,0.00,,---,0.01,VWS V14.01,2013-06-19 14:54:00,
2013-06-19 10:55:00,87.0,77.3,29.94,SE,135,0.0,8.0,73,0.00,,---,0.01,VWS V14.01,2013-06-19 14:55:00,
2013-06-19 10:56:00,87.0,77.3,29.94,SE,135,0.0,8.0,73,0.00,,---,0.01,VWS V14.01,2013-06-19 14:56:00,
2013-06-19 11:00:00,86.3,78.6,29.94,SE,135,0.0,8.0,78,0.03,,---,0.04,VWS V14.01,2013-06-19 15:00:00,
2013-06-19 11:01:00,86.3,78.6,29.94,SE,135,0.0,8.0,78,0.03,,---,0.04,VWS V14.01,2013-06-19 15:01:00,
2013-06-19 11:04:00,85.9,78.2,29.94,SE,135,4.0,8.0,78,0.05,,---,0.06,VWS V14.01,2013-06-19 15:04:00,
2013-06-19 11:06:00,84.7,77.5,29.94,SE,134,0.0,0.0,79,0.06,,---,0.07,VWS V14.01,2013-06-19 15:06:00,
2013-06-19 11:07:00,84.0,77.2,29.94,SE,134,0.0,0.0,80,0.06,,---,0.07,VWS V14.01,2013-06-19 15:07:00,
2013-06-19 11:08:00,84.0,77.2,29.94,SE,134,0.0,0.0,80,0.06,,---,0.07,VWS V14.01,2013-06-19 15:08:00,
2013-06-19 11:09:00,83.6,77.9,29.94,SE,134,0.0,0.0,83,0.07,,---,0.08,VWS V14.01,2013-06-19 15:09:00,
2013-06-19 11:11:00,83.2,77.9,29.94,SE,134,0.0,0.0,84,0.07,,---,0.08,VWS V14.01,2013-06-19 15:11:00,
2013-06-19 11:13:00,83.0,78.0,29.94,SE,134,0.0,0.0,85,0.07,,---,0.08,VWS V14.01,2013-06-19 15:13:00,
2013-06-19 11:17:00,82.4,78.1,29.94,SE,130,2.0,2.0,87,0.07,,---,0.08,VWS V14.01,2013-06-19 15:17:00,
2013-06-19 11:18:00,82.0,77.8,29.94,SE,130,0.0,2.0,87,0.07,,---,0.08,VWS V14.01,2013-06-19 15:18:00,
2013-06-19 11:19:00,82.0,77.8,29.94,SE,130,0.0,2.0,87,0.07,,---,0.08,VWS V14.01,2013-06-19 15:19:00,
2013-06-19 11:20:00,81.8,77.6,29.94,SE,130,0.0,2.0,87,0.07,,---,0.08,VWS V14.01,2013-06-19 15:20:00,
2013-06-19 11:21:00,81.6,77.4,29.94,SE,130,0.0,2.0,87,0.07,,---,0.08,VWS V14.01,2013-06-19 15:21:00,
2013-06-19 11:22:00,81.6,77.4,29.94,SE,130,0.0,2.0,87,0.07,,---,0.08,VWS V14.01,2013-06-19 15:22:00,
2013-06-19 11:24:00,81.4,77.5,29.94,SE,130,0.0,2.0,88,0.07,,---,0.08,VWS V14.01,2013-06-19 15:24:00,
2013-06-19 11:26:00,81.4,77.5,29.94,SE,130,0.0,2.0,88,0.07,,---,0.08,VWS V14.01,2013-06-19 15:26:00,
2013-06-19 11:27:00,81.2,77.0,29.94,SE,130,0.0,2.0,87,0.07,,---,0.08,VWS V14.01,2013-06-19 15:27:00,
2013-06-19 11:30:00,81.2,77.7,29.94,SE,130,0.0,2.0,89,0.07,,---,0.08,VWS V14.01,2013-06-19 15:30:00,
2013-06-19 11:31:00,81.4,77.8,29.94,SE,130,0.0,2.0,89,0.07,,---,0.08,VWS V14.01,2013-06-19 15:31:00,
2013-06-19 11:32:00,81.4,77.8,29.94,SE,130,0.0,2.0,89,0.07,,---,0.08,VWS V14.01,2013-06-19 15:32:00,
2013-06-19 11:36:00,81.2,77.7,29.94,SE,127,2.0,2.0,89,0.07,,---,0.08,VWS V14.01,2013-06-19 15:36:00,
2013-06-19 11:37:00,81.2,78.0,29.94,SE,127,0.0,2.0,90,0.07,,---,0.08,VWS V14.01,2013-06-19 15:37:00,
2013-06-19 11:38:00,81.2,78.0,29.94,SE,127,0.0,2.0,90,0.07,,---,0.08,VWS V14.01,2013-06-19 15:38:00,
2013-06-19 11:39:00,81.2,77.7,29.94,SE,127,0.0,2.0,89,0.07,,---,0.08,VWS V14.01,2013-06-19 15:39:00,
2013-06-19 11:40:00,81.2,77.7,29.94,SE,127,0.0,2.0,89,0.07,,---,0.08,VWS V14.01,2013-06-19 15:40:00,
2013-06-19 11:43:00,81.2,78.0,29.94,SE,127,0.0,2.0,90,0.07,,---,0.08,VWS V14.01,2013-06-19 15:43:00,
2013-06-19 11:44:00,81.2,77.7,29.94,SE,127,0.0,2.0,89,0.07,,---,0.08,VWS V14.01,2013-06-19 15:44:00,
2013-06-19 11:45:00,81.2,77.3,29.94,SE,127,0.0,2.0,88,0.07,,---,0.08,VWS V14.01,2013-06-19 15:45:00,
2013-06-19 11:46:00,81.2,77.7,29.94,SE,127,0.0,2.0,89,0.07,,---,0.08,VWS V14.01,2013-06-19 15:46:00,
2013-06-19 11:48:00,81.4,78.2,29.95,SE,127,0.0,2.0,90,0.07,,---,0.08,VWS V14.01,2013-06-19 15:48:00,
2013-06-19 11:49:00,81.6,78.4,29.95,SE,127,0.0,2.0,90,0.07,,---,0.08,VWS V14.01,2013-06-19 15:49:00,
2013-06-19 11:51:00,81.8,78.9,29.95,SE,127,0.0,2.0,91,0.07,,---,0.08,VWS V14.01,2013-06-19 15:51:00,
2013-06-19 11:53:00,82.2,79.3,29.95,SE,127,0.0,2.0,91,0.07,,---,0.08,VWS V14.01,2013-06-19 15:53:00,
2013-06-19 11:54:00,82.4,79.2,29.95,SE,127,0.0,2.0,90,0.07,,---,0.08,VWS V14.01,2013-06-19 15:54:00,
2013-06-19 11:57:00,83.0,79.8,29.95,SE,127,0.0,2.0,90,0.07,,---,0.08,VWS V14.01,2013-06-19 15:57:00,
2013-06-19 11:58:00,83.2,79.6,29.95,SE,127,0.0,2.0,89,0.07,,---,0.08,VWS V14.01,2013-06-19 15:58:00,
2013-06-19 12:01:00,83.6,79.7,29.95,SE,127,0.0,2.0,88,0.07,,---,0.08,VWS V14.01,2013-06-19 16:01:00,
2013-06-19 12:03:00,83.6,79.7,29.95,SE,127,0.0,2.0,88,0.07,,---,0.08,VWS V14.01,2013-06-19 16:03:00,
2013-06-19 12:04:00,83.8,79.9,29.94,SE,127,0.0,2.0,88,0.07,,---,0.08,VWS V14.01,2013-06-19 16:04:00,
2013-06-19 12:05:00,84.0,80.1,29.94,SE,127,0.0,0.0,88,0.01,,---,0.08,VWS V14.01,2013-06-19 16:05:00,
2013-06-19 12:07:00,84.0,79.7,29.94,SE,127,0.0,0.0,87,0.01,,---,0.08,VWS V14.01,2013-06-19 16:07:00,
2013-06-19 12:09:00,84.3,79.7,29.94,SE,127,0.0,0.0,86,0.01,,---,0.08,VWS V14.01,2013-06-19 16:09:00,
2013-06-19 12:10:00,84.3,79.7,29.94,SE,127,0.0,0.0,86,0.01,,---,0.08,VWS V14.01,2013-06-19 16:10:00,
2013-06-19 12:13:00,84.7,79.3,29.94,SE,127,0.0,0.0,84,0.01,,---,0.08,VWS V14.01,2013-06-19 16:13:00,
2013-06-19 12:14:00,84.9,79.2,29.94,SE,127,0.0,0.0,83,0.01,,---,0.08,VWS V14.01,2013-06-19 16:14:00,
2013-06-19 12:15:00,85.1,79.7,29.94,SE,127,0.0,0.0,84,0.01,,---,0.08,VWS V14.01,2013-06-19 16:15:00,
2013-06-19 12:18:00,85.7,79.6,29.94,SE,127,0.0,0.0,82,0.01,,---,0.08,VWS V14.01,2013-06-19 16:18:00,
2013-06-19 12:19:00,85.7,79.6,29.94,SE,127,0.0,0.0,82,0.01,,---,0.08,VWS V14.01,2013-06-19 16:19:00,
2013-06-19 12:20:00,86.1,79.2,29.94,SE,127,0.0,0.0,80,0.01,,---,0.08,VWS V14.01,2013-06-19 16:20:00,
2013-06-19 12:21:00,86.1,79.2,29.94,SE,127,0.0,0.0,80,0.01,,---,0.08,VWS V14.01,2013-06-19 16:21:00,
2013-06-19 12:22:00,86.5,79.2,29.94,SE,127,0.0,0.0,79,0.01,,---,0.08,VWS V14.01,2013-06-19 16:22:00,
2013-06-19 12:23:00,87.0,79.3,29.94,SE,127,0.0,0.0,78,0.01,,---,0.08,VWS V14.01,2013-06-19 16:23:00,
2013-06-19 12:26:00,87.2,78.3,29.94,SE,127,0.0,0.0,75,0.01,,---,0.08,VWS V14.01,2013-06-19 16:26:00,
2013-06-19 12:28:00,87.6,79.1,29.94,SE,127,0.0,0.0,76,0.01,,---,0.08,VWS V14.01,2013-06-19 16:28:00,
2013-06-19 12:29:00,88.2,78.4,29.94,SE,127,0.0,0.0,73,0.01,,---,0.08,VWS V14.01,2013-06-19 16:29:00,
2013-06-19 12:30:00,88.2,78.4,29.94,SE,127,0.0,0.0,73,0.01,,---,0.08,VWS V14.01,2013-06-19 16:30:00,
2013-06-19 12:34:00,89.0,77.5,29.93,SE,127,0.0,0.0,69,0.01,,---,0.08,VWS V14.01,2013-06-19 16:34:00,
2013-06-19 12:35:00,89.5,76.7,29.93,ENE,74,0.0,0.0,66,0.01,,---,0.08,VWS V14.01,2013-06-19 16:35:00,
2013-06-19 12:36:00,89.5,76.7,29.93,WSW,255,6.0,6.0,66,0.01,,---,0.08,VWS V14.01,2013-06-19 16:36:00,
2013-06-19 12:37:00,89.5,76.7,29.93,WSW,255,2.0,6.0,66,0.01,,---,0.08,VWS V14.01,2013-06-19 16:37:00,
2013-06-19 12:39:00,89.5,76.2,29.93,West,265,4.0,7.0,65,0.01,,---,0.08,VWS V14.01,2013-06-19 16:39:00,
2013-06-19 12:40:00,89.5,74.8,29.93,West,265,0.0,7.0,62,0.01,,---,0.08,VWS V14.01,2013-06-19 16:40:00,
2013-06-19 12:41:00,89.5,75.2,29.93,West,265,0.0,7.0,63,0.01,,---,0.08,VWS V14.01,2013-06-19 16:41:00,
2013-06-19 12:42:00,89.5,74.8,29.93,West,265,0.0,7.0,62,0.01,,---,0.08,VWS V14.01,2013-06-19 16:42:00,
2013-06-19 12:46:00,89.3,75.5,29.93,West,267,0.0,7.0,64,0.01,,---,0.08,VWS V14.01,2013-06-19 16:46:00,
2013-06-19 12:47:00,89.0,75.2,29.93,West,267,1.0,7.0,64,0.01,,---,0.08,VWS V14.01,2013-06-19 16:47:00,
2013-06-19 12:48:00,88.8,74.1,29.93,West,267,0.0,7.0,62,0.01,,---,0.08,VWS V14.01,2013-06-19 16:48:00,
2013-06-19 12:49:00,88.8,75.1,29.94,West,267,4.0,7.0,64,0.01,,---,0.08,VWS V14.01,2013-06-19 16:49:00,
2013-06-19 12:51:00,88.6,73.9,29.94,West,267,0.0,7.0,62,0.01,,---,0.08,VWS V14.01,2013-06-19 16:51:00,
2013-06-19 12:52:00,88.4,75.1,29.94,West,267,0.0,7.0,65,0.01,,---,0.08,VWS V14.01,2013-06-19 16:52:00,
2013-06-19 12:53:00,88.4,76.5,29.94,SW,226,0.0,7.0,68,0.01,,---,0.08,VWS V14.01,2013-06-19 16:53:00,
2013-06-19 12:55:00,88.4,76.5,29.94,SW,226,0.0,7.0,68,0.01,,---,0.08,VWS V14.01,2013-06-19 16:55:00,
2013-06-19 12:56:00,88.4,77.4,29.94,SE,128,6.0,7.0,70,0.01,,---,0.08,VWS V14.01,2013-06-19 16:56:00,
2013-06-19 12:57:00,88.2,77.6,29.94,ESE,120,0.0,7.0,71,0.01,,---,0.08,VWS V14.01,2013-06-19 16:57:00,
2013-06-19 13:00:00,88.2,78.0,29.94,ESE,120,4.0,7.0,72,0.01,,---,0.08,VWS V14.01,2013-06-19 17:00:00,
2013-06-19 13:01:00,88.0,77.4,29.94,SE,137,5.0,7.0,71,0.01,,---,0.08,VWS V14.01,2013-06-19 17:01:00,
2013-06-19 13:02:00,87.8,77.7,29.94,SE,127,1.0,7.0,72,0.01,,---,0.08,VWS V14.01,2013-06-19 17:02:00,
2013-06-19 13:06:00,87.6,77.5,29.93,ESE,113,0.0,2.0,72,0.00,,---,0.08,VWS V14.01,2013-06-19 17:06:00,
2013-06-19 13:07:00,87.4,77.3,29.93,ESE,112,2.0,6.0,72,0.00,,---,0.08,VWS V14.01,2013-06-19 17:07:00,
2013-06-19 13:08:00,87.4,77.7,29.93,ESE,103,2.0,6.0,73,0.00,,---,0.08,VWS V14.01,2013-06-19 17:08:00,
2013-06-19 13:11:00,87.4,77.7,29.93,ESE,108,0.0,7.0,73,0.00,,---,0.08,VWS V14.01,2013-06-19 17:11:00,
2013-06-19 13:13:00,87.4,77.7,29.93,ESE,108,0.0,7.0,73,0.00,,---,0.08,VWS V14.01,2013-06-19 17:13:00,
2013-06-19 13:16:00,87.4,77.3,29.93,East,99,3.0,7.0,72,0.00,,---,0.08,VWS V14.01,2013-06-19 17:16:00,
2013-06-19 13:17:00,87.4,77.3,29.93,SE,139,2.0,7.0,72,0.00,,---,0.08,VWS V14.01,2013-06-19 17:17:00,
2013-06-19 13:18:00,87.6,77.5,29.92,SE,140,2.0,8.0,72,0.00,,---,0.08,VWS V14.01,2013-06-19 17:18:00,
2013-06-19 13:19:00,87.6,76.6,29.92,ESE,110,2.0,8.0,70,0.00,,---,0.08,VWS V14.01,2013-06-19 17:19:00,
2013-06-19 13:22:00,87.8,76.8,29.92,SE,137,6.0,8.0,70,0.00,,---,0.08,VWS V14.01,2013-06-19 17:22:00,
2013-06-19 13:23:00,87.8,76.4,29.92,South,172,0.0,8.0,69,0.00,,---,0.08,VWS V14.01,2013-06-19 17:23:00,
2013-06-19 13:24:00,88.0,77.0,29.92,SSE,166,0.0,8.0,70,0.00,,---,0.08,VWS V14.01,2013-06-19 17:24:00,
2013-06-19 13:25:00,88.2,76.8,29.92,SSE,152,0.0,8.0,69,0.00,,---,0.08,VWS V14.01,2013-06-19 17:25:00,
2013-06-19 13:26:00,88.2,77.2,29.92,East,89,1.0,8.0,70,0.00,,---,0.08,VWS V14.01,2013-06-19 17:26:00,
2013-06-19 13:29:00,88.4,77.8,29.92,ESE,110,0.0,9.0,71,0.00,,---,0.08,VWS V14.01,2013-06-19 17:29:00,
2013-06-19 13:30:00,88.4,77.8,29.92,East,97,6.0,9.0,71,0.00,,---,0.08,VWS V14.01,2013-06-19 17:30:00,
2013-06-19 13:31:00,88.2,78.0,29.92,SE,136,6.0,9.0,72,0.00,,---,0.08,VWS V14.01,2013-06-19 17:31:00,
2013-06-19 13:32:00,88.0,77.4,29.92,East,101,0.0,9.0,71,0.00,,---,0.08,VWS V14.01,2013-06-19 17:32:00,
2013-06-19 13:33:00,87.6,76.6,29.94,East,86,6.0,9.0,70,0.00,,---,0.08,VWS V14.01,2013-06-19 17:33:00,
2013-06-19 13:36:00,87.0,76.9,29.94,NE,44,4.0,9.0,72,0.00,,---,0.08,VWS V14.01,2013-06-19 17:36:00,
2013-06-19 13:37:00,86.5,76.8,29.94,NE,45,0.0,9.0,73,0.00,,---,0.08,VWS V14.01,2013-06-19 17:37:00,
2013-06-19 13:39:00,86.1,77.2,29.94,NE,56,8.0,9.0,75,0.00,,---,0.08,VWS V14.01,2013-06-19 17:39:00,
2013-06-19 13:41:00,85.5,77.1,29.94,NNW,347,4.0,10.0,76,0.00,,---,0.08,VWS V14.01,2013-06-19 17:41:00,
2013-06-19 13:42:00,84.9,76.9,29.94,NW,317,6.0,10.0,77,0.00,,---,0.08,VWS V14.01,2013-06-19 17:42:00,
2013-06-19 13:44:00,83.8,73.8,29.94,NNW,343,11.0,11.0,72,0.00,,---,0.08,VWS V14.01,2013-06-19 17:44:00,
2013-06-19 13:47:00,82.4,72.1,29.94,North,351,8.0,12.0,71,0.00,,---,0.08,VWS V14.01,2013-06-19 17:47:00,
2013-06-19 13:48:00,82.2,71.4,29.94,West,280,11.0,12.0,70,0.00,,---,0.08,VWS V14.01,2013-06-19 17:48:00,
2013-06-19 13:49:00,81.2,68.8,29.94,North,349,14.0,14.0,66,0.00,,---,0.08,VWS V14.01,2013-06-19 17:49:00,
2013-06-19 13:51:00,80.3,68.3,29.94,North,358,3.0,16.0,67,0.00,,---,0.08,VWS V14.01,2013-06-19 17:51:00,
2013-06-19 13:54:00,79.6,68.5,29.94,NW,319,12.0,16.0,69,0.00,,---,0.08,VWS V14.01,2013-06-19 17:54:00,
2013-06-19 13:55:00,79.0,68.8,29.94,WNW,300,10.0,23.0,71,0.00,,---,0.08,VWS V14.01,2013-06-19 17:55:00,
2013-06-19 13:57:00,78.3,68.5,29.94,NE,41,13.0,23.0,72,0.01,,---,0.09,VWS V14.01,2013-06-19 17:57:00,
2013-06-19 13:59:00,77.2,68.7,29.94,NE,51,10.0,23.0,75,0.02,,---,0.10,VWS V14.01,2013-06-19 17:59:00,
2013-06-19 14:01:00,76.1,68.8,29.94,NNE,16,9.0,23.0,78,0.02,,---,0.10,VWS V14.01,2013-06-19 18:01:00,
2013-06-19 14:02:00,76.0,69.0,29.94,NE,39,10.0,23.0,79,0.02,,---,0.10,VWS V14.01,2013-06-19 18:02:00,
2013-06-19 14:03:00,75.6,69.4,29.94,NNW,339,9.0,23.0,81,0.02,,---,0.10,VWS V14.01,2013-06-19 18:03:00,
2013-06-19 14:05:00,75.3,69.8,29.95,ENE,59,12.0,12.0,83,0.03,,---,0.11,VWS V14.01,2013-06-19 18:05:00,
2013-06-19 14:07:00,75.1,69.9,29.95,NNE,20,11.0,12.0,84,0.05,,---,0.13,VWS V14.01,2013-06-19 18:07:00,
2013-06-19 14:10:00,74.9,69.7,29.95,NE,45,4.0,12.0,84,0.05,,---,0.13,VWS V14.01,2013-06-19 18:10:00,
2013-06-19 14:13:00,74.7,69.9,29.95,NNE,13,6.0,12.0,85,0.05,,---,0.13,VWS V14.01,2013-06-19 18:13:00,
2013-06-19 14:14:00,74.7,69.9,29.95,NE,38,4.0,12.0,85,0.05,,---,0.13,VWS V14.01,2013-06-19 18:14:00,
2013-06-19 14:15:00,74.7,70.2,29.95,NE,38,0.0,12.0,86,0.05,,---,0.13,VWS V14.01,2013-06-19 18:15:00,
2013-06-19 14:18:00,74.9,70.8,29.94,NE,41,1.0,12.0,87,0.05,,---,0.13,VWS V14.01,2013-06-19 18:18:00,
2013-06-19 14:19:00,74.9,70.8,29.94,NE,41,1.0,12.0,87,0.05,,---,0.13,VWS V14.01,2013-06-19 18:19:00,
2013-06-19 14:20:00,75.1,71.3,29.94,ENE,73,0.0,12.0,88,0.05,,---,0.13,VWS V14.01,2013-06-19 18:20:00,
2013-06-19 14:21:00,75.3,71.5,29.94,East,79,5.0,12.0,88,0.05,,---,0.13,VWS V14.01,2013-06-19 18:21:00,
2013-06-19 14:23:00,75.4,71.9,29.94,East,79,0.0,12.0,89,0.05,,---,0.13,VWS V14.01,2013-06-19 18:23:00,
2013-06-19 14:25:00,75.6,72.1,29.94,NE,49,0.0,12.0,89,0.06,,---,0.14,VWS V14.01,2013-06-19 18:25:00,
2013-06-19 14:27:00,75.8,72.3,29.94,NE,49,0.0,12.0,89,0.06,,---,0.14,VWS V14.01,2013-06-19 18:27:00,
2013-06-19 14:28:00,75.8,72.3,29.94,NE,49,5.0,12.0,89,0.06,,---,0.14,VWS V14.01,2013-06-19 18:28:00,
2013-06-19 14:29:00,75.8,72.3,29.94,East,79,4.0,12.0,89,0.06,,---,0.14,VWS V14.01,2013-06-19 18:29:00,
2013-06-19 14:31:00,76.1,73.0,29.94,North,0,0.0,12.0,90,0.06,,---,0.14,VWS V14.01,2013-06-19 18:31:00,
2013-06-19 14:33:00,76.3,73.2,29.93,North,0,0.0,12.0,90,0.06,,---,0.14,VWS V14.01,2013-06-19 18:33:00,
2013-06-19 14:34:00,76.3,73.2,29.93,North,0,0.0,12.0,90,0.06,,---,0.14,VWS V14.01,2013-06-19 18:34:00,
2013-06-19 14:36:00,76.7,73.9,29.93,North,0,0.0,12.0,91,0.07,,---,0.15,VWS V14.01,2013-06-19 18:36:00,
2013-06-19 14:39:00,76.7,73.6,29.93,North,0,0.0,12.0,90,0.08,,---,0.16,VWS V14.01,2013-06-19 18:39:00,
2013-06-19 14:40:00,76.7,73.9,29.93,North,0,0.0,12.0,91,0.09,,---,0.17,VWS V14.01,2013-06-19 18:40:00,
2013-06-19 14:41:00,76.7,73.9,29.93,North,0,0.0,12.0,91,0.10,,---,0.18,VWS V14.01,2013-06-19 18:41:00,
2013-06-19 14:42:00,76.8,74.0,29.93,ENE,58,0.0,12.0,91,0.10,,---,0.18,VWS V14.01,2013-06-19 18:42:00,
2013-06-19 14:44:00,77.0,74.5,29.93,ENE,58,0.0,12.0,92,0.11,,---,0.19,VWS V14.01,2013-06-19 18:44:00,
2013-06-19 14:46:00,77.0,74.5,29.93,ENE,58,0.0,12.0,92,0.11,,---,0.19,VWS V14.01,2013-06-19 18:46:00,
2013-06-19 14:48:00,76.8,74.0,29.93,ENE,58,0.0,12.0,91,0.11,,---,0.19,VWS V14.01,2013-06-19 18:48:00,
2013-06-19 14:49:00,76.8,74.3,29.92,ENE,58,0.0,12.0,92,0.11,,---,0.19,VWS V14.01,2013-06-19 18:49:00,
2013-06-19 14:50:00,76.8,74.3,29.92,ENE,57,0.0,12.0,92,0.11,,---,0.19,VWS V14.01,2013-06-19 18:50:00,
2013-06-19 14:51:00,76.7,73.9,29.92,ENE,58,0.0,12.0,91,0.11,,---,0.19,VWS V14.01,2013-06-19 18:51:00,
2013-06-19 14:54:00,76.7,73.9,29.92,ENE,58,0.0,12.0,91,0.11,,---,0.19,VWS V14.01,2013-06-19 18:54:00,
2013-06-19 14:55:00,76.7,74.2,29.92,ENE,58,0.0,12.0,92,0.11,,---,0.19,VWS V14.01,2013-06-19 18:55:00,
2013-06-19 14:57:00,76.8,74.3,29.92,ENE,58,0.0,12.0,92,0.11,,---,0.19,VWS V14.01,2013-06-19 18:57:00,
2013-06-19 14:59:00,77.2,75.0,29.92,ENE,58,0.0,12.0,93,0.11,,---,0.19,VWS V14.01,2013-06-19 18:59:00,
2013-06-19 15:00:00,77.4,75.2,29.92,ENE,57,0.0,12.0,93,0.11,,---,0.19,VWS V14.01,2013-06-19 19:00:00,
2013-06-19 15:01:00,77.4,75.2,29.92,ENE,57,0.0,12.0,93,0.11,,---,0.19,VWS V14.01,2013-06-19 19:01:00,
2013-06-19 15:03:00,77.6,75.4,29.92,ENE,57,0.0,12.0,93,0.11,,---,0.19,VWS V14.01,2013-06-19 19:03:00,
2013-06-19 15:06:00,78.1,76.2,29.92,ENE,57,0.0,0.0,94,0.08,,---,0.19,VWS V14.01,2013-06-19 19:06:00,
2013-06-19 15:07:00,78.3,76.4,29.92,ENE,57,0.0,0.0,94,0.08,,---,0.19,VWS V14.01,2013-06-19 19:07:00,
2013-06-19 15:08:00,78.3,76.4,29.92,ENE,57,0.0,0.0,94,0.08,,---,0.19,VWS V14.01,2013-06-19 19:08:00,
2013-06-19 15:09:00,78.3,76.4,29.92,ENE,57,0.0,0.0,94,0.08,,---,0.19,VWS V14.01,2013-06-19 19:09:00,
2013-06-19 15:13:00,79.4,77.5,29.92,ENE,57,0.0,1.0,94,0.08,,---,0.19,VWS V14.01,2013-06-19 19:13:00,
2013-06-19 15:14:00,79.4,77.5,29.92,ENE,57,0.0,1.0,94,0.08,,---,0.19,VWS V14.01,2013-06-19 19:14:00,
2013-06-19 15:15:00,79.8,77.9,29.92,ENE,57,0.0,1.0,94,0.08,,---,0.19,VWS V14.01,2013-06-19 19:15:00,
2013-06-19 15:16:00,80.1,78.5,29.92,ENE,57,0.0,1.0,95,0.08,,---,0.19,VWS V14.01,2013-06-19 19:16:00,
2013-06-19 15:19:00,80.7,78.8,29.91,ENE,57,0.0,1.0,94,0.08,,---,0.19,VWS V14.01,2013-06-19 19:19:00,
2013-06-19 15:20:00,80.9,79.0,29.91,ENE,57,0.0,1.0,94,0.08,,---,0.19,VWS V14.01,2013-06-19 19:20:00,
2013-06-19 15:22:00,81.4,79.5,29.91,NNE,18,0.0,1.0,94,0.08,,---,0.19,VWS V14.01,2013-06-19 19:22:00,
2013-06-19 15:23:00,81.6,79.7,29.91,NNE,18,0.0,1.0,94,0.08,,---,0.19,VWS V14.01,2013-06-19 19:23:00,
2013-06-19 15:24:00,81.8,79.6,29.91,NNE,18,0.0,4.0,93,0.08,,---,0.19,VWS V14.01,2013-06-19 19:24:00,
2013-06-19 15:26:00,82.0,79.4,29.91,NNE,18,0.0,4.0,92,0.08,,---,0.19,VWS V14.01,2013-06-19 19:26:00,
2013-06-19 15:27:00,82.2,79.7,29.91,NNE,18,0.0,4.0,92,0.08,,---,0.19,VWS V14.01,2013-06-19 19:27:00,
2013-06-19 15:28:00,82.6,79.7,29.91,NNE,18,0.0,4.0,91,0.08,,---,0.19,VWS V14.01,2013-06-19 19:28:00,
2013-06-19 15:29:00,82.8,79.9,29.91,NNE,18,0.0,4.0,91,0.08,,---,0.19,VWS V14.01,2013-06-19 19:29:00,
2013-06-19 15:31:00,82.8,79.6,29.91,NNE,18,0.0,4.0,90,0.08,,---,0.19,VWS V14.01,2013-06-19 19:31:00,
2013-06-19 15:32:00,83.0,79.8,29.91,NNE,18,0.0,4.0,90,0.08,,---,0.19,VWS V14.01,2013-06-19 19:32:00,
2013-06-19 15:34:00,83.6,80.0,29.91,NNE,18,0.0,4.0,89,0.08,,---,0.19,VWS V14.01,2013-06-19 19:34:00,
2013-06-19 15:35:00,83.6,80.0,29.91,NNE,18,0.0,4.0,89,0.08,,---,0.19,VWS V14.01,2013-06-19 19:35:00,
2013-06-19 15:37:00,84.0,79.7,29.91,North,11,0.0,4.0,87,0.08,,---,0.19,VWS V14.01,2013-06-19 19:37:00,
2013-06-19 15:39:00,84.5,79.5,29.91,North,11,2.0,4.0,85,0.08,,---,0.19,VWS V14.01,2013-06-19 19:39:00,
2013-06-19 15:40:00,84.7,79.7,29.91,North,11,3.0,4.0,85,0.08,,---,0.19,VWS V14.01,2013-06-19 19:40:00,
2013-06-19 15:43:00,85.3,79.6,29.91,North,11,0.0,4.0,83,0.08,,---,0.19,VWS V14.01,2013-06-19 19:43:00,
2013-06-19 15:45:00,85.7,78.4,29.91,North,11,0.0,4.0,79,0.08,,---,0.19,VWS V14.01,2013-06-19 19:45:00,
2013-06-19 15:46:00,85.9,78.2,29.91,North,0,5.0,5.0,78,0.08,,---,0.19,VWS V14.01,2013-06-19 19:46:00,
2013-06-19 15:49:00,86.1,77.7,29.91,NNW,346,0.0,6.0,76,0.08,,---,0.19,VWS V14.01,2013-06-19 19:49:00,
2013-06-19 15:51:00,86.5,77.6,29.91,North,354,0.0,6.0,75,0.08,,---,0.19,VWS V14.01,2013-06-19 19:51:00,
2013-06-19 15:54:00,87.2,77.5,29.91,North,349,0.0,6.0,73,0.08,,---,0.19,VWS V14.01,2013-06-19 19:54:00,
2013-06-19 15:55:00,87.2,77.5,29.91,North,349,0.0,6.0,73,0.08,,---,0.19,VWS V14.01,2013-06-19 19:55:00,
2013-06-19 16:01:00,88.6,78.0,29.91,North,349,4.0,6.0,71,0.08,,---,0.19,VWS V14.01,2013-06-19 20:01:00,
2013-06-19 16:02:00,88.8,77.8,29.91,North,349,2.0,6.0,70,0.08,,---,0.19,VWS V14.01,2013-06-19 20:02:00,
2013-06-19 16:03:00,89.3,77.8,29.90,North,349,0.0,6.0,69,0.08,,---,0.19,VWS V14.01,2013-06-19 20:03:00,
2013-06-19 16:07:00,89.9,77.0,29.90,North,349,0.0,0.0,66,0.00,,---,0.19,VWS V14.01,2013-06-19 20:07:00,
2013-06-19 16:09:00,90.3,76.9,29.90,North,349,0.0,0.0,65,0.00,,---,0.19,VWS V14.01,2013-06-19 20:09:00,
2013-06-19 16:11:00,90.5,76.7,29.90,North,349,0.0,0.0,64,0.00,,---,0.19,VWS V14.01,2013-06-19 20:11:00,
2013-06-19 16:13:00,91.0,77.1,29.90,North,349,0.0,0.0,64,0.00,,---,0.19,VWS V14.01,2013-06-19 20:13:00,
2013-06-19 16:14:00,91.0,77.6,29.90,North,349,0.0,0.0,65,0.00,,---,0.19,VWS V14.01,2013-06-19 20:14:00,
2013-06-19 16:16:00,91.4,78.0,29.90,North,349,0.0,0.0,65,0.00,,---,0.19,VWS V14.01,2013-06-19 20:16:00,
2013-06-19 16:20:00,92.1,77.7,29.89,North,349,0.0,0.0,63,0.00,,---,0.19,VWS V14.01,2013-06-19 20:20:00,
2013-06-19 16:22:00,92.5,77.1,29.89,North,349,0.0,5.0,61,0.00,,---,0.19,VWS V14.01,2013-06-19 20:22:00,
2013-06-19 16:26:00,92.5,76.6,29.89,North,349,0.0,5.0,60,0.00,,---,0.19,VWS V14.01,2013-06-19 20:26:00,
2013-06-19 16:28:00,92.9,77.0,29.89,North,349,0.0,5.0,60,0.00,,---,0.19,VWS V14.01,2013-06-19 20:28:00,
2013-06-19 16:29:00,92.9,76.5,29.89,WNW,291,0.0,5.0,59,0.00,,---,0.19,VWS V14.01,2013-06-19 20:29:00,
2013-06-19 16:31:00,92.7,77.3,29.89,WNW,291,0.0,5.0,61,0.00,,---,0.19,VWS V14.01,2013-06-19 20:31:00,
2013-06-19 16:32:00,92.5,77.1,29.89,WNW,291,0.0,5.0,61,0.00,,---,0.19,VWS V14.01,2013-06-19 20:32:00,
2013-06-19 16:33:00,92.5,76.6,29.89,WNW,291,0.0,5.0,60,0.00,,---,0.19,VWS V14.01,2013-06-19 20:33:00,
2013-06-19 16:34:00,92.5,76.6,29.89,WNW,291,0.0,5.0,60,0.00,,---,0.19,VWS V14.01,2013-06-19 20:34:00,
2013-06-19 16:38:00,92.1,77.2,29.89,WNW,291,0.0,5.0,62,0.00,,---,0.19,VWS V14.01,2013-06-19 20:38:00,
2013-06-19 16:40:00,91.6,76.2,29.89,WNW,291,0.0,5.0,61,0.00,,---,0.19,VWS V14.01,2013-06-19 20:40:00,
2013-06-19 16:41:00,91.4,76.6,29.89,WNW,291,0.0,5.0,62,0.00,,---,0.19,VWS V14.01,2013-06-19 20:41:00,
2013-06-19 16:42:00,91.0,76.7,29.89,WNW,291,0.0,5.0,63,0.00,,---,0.19,VWS V14.01,2013-06-19 20:42:00,
2013-06-19 16:43:00,90.7,76.4,29.89,WNW,291,0.0,5.0,63,0.00,,---,0.19,VWS V14.01,2013-06-19 20:43:00,
2013-06-19 16:44:00,90.7,76.4,29.89,WNW,291,0.0,5.0,63,0.00,,---,0.19,VWS V14.01,2013-06-19 20:44:00,
2013-06-19 16:46:00,90.5,76.7,29.89,WNW,291,0.0,5.0,64,0.00,,---,0.19,VWS V14.01,2013-06-19 20:46:00,
2013-06-19 16:47:00,90.3,76.5,29.89,WNW,291,0.0,5.0,64,0.00,,---,0.19,VWS V14.01,2013-06-19 20:47:00,
2013-06-19 16:49:00,90.1,76.8,29.89,WNW,291,0.0,5.0,65,0.00,,---,0.19,VWS V14.01,2013-06-19 20:49:00,
2013-06-19 16:51:00,89.7,77.3,29.89,WNW,291,0.0,5.0,67,0.00,,---,0.19,VWS V14.01,2013-06-19 20:51:00,
2013-06-19 16:53:00,89.5,77.1,29.89,WNW,298,4.0,5.0,67,0.00,,---,0.19,VWS V14.01,2013-06-19 20:53:00,
2013-06-19 16:54:00,89.3,77.4,29.89,WNW,298,0.0,5.0,68,0.02,,---,0.21,VWS V14.01,2013-06-19 20:54:00,
2013-06-19 16:55:00,88.8,77.3,29.89,WNW,289,6.0,6.0,69,0.04,,---,0.23,VWS V14.01,2013-06-19 20:55:00,
2013-06-19 16:56:00,88.0,76.6,29.89,WSW,244,4.0,8.0,69,0.04,,---,0.23,VWS V14.01,2013-06-19 20:56:00,
2013-06-19 16:59:00,85.9,76.7,29.89,SSE,155,0.0,8.0,74,0.06,,---,0.25,VWS V14.01,2013-06-19 20:59:00,
2013-06-19 17:00:00,85.9,76.7,29.89,SSE,155,0.0,8.0,74,0.06,,---,0.25,VWS V14.01,2013-06-19 21:00:00,
2013-06-19 17:01:00,85.1,76.7,29.89,SSE,155,0.0,8.0,76,0.06,,---,0.25,VWS V14.01,2013-06-19 21:01:00,
2013-06-19 17:02:00,85.1,76.7,29.89,SSE,155,0.0,8.0,76,0.06,,---,0.25,VWS V14.01,2013-06-19 21:02:00,
2013-06-19 17:06:00,83.8,76.2,29.90,SSE,157,0.0,1.0,78,0.10,,---,0.29,VWS V14.01,2013-06-19 21:06:00,
2013-06-19 17:08:00,83.2,75.2,29.90,SSE,157,0.0,1.0,77,0.10,,---,0.29,VWS V14.01,2013-06-19 21:08:00,
2013-06-19 17:09:00,82.6,75.1,29.90,SSE,157,0.0,1.0,78,0.10,,---,0.29,VWS V14.01,2013-06-19 21:09:00,
2013-06-19 17:10:00,82.2,75.0,29.90,SSE,157,0.0,1.0,79,0.10,,---,0.29,VWS V14.01,2013-06-19 21:10:00,
2013-06-19 17:11:00,82.0,75.2,29.90,SSE,156,1.0,1.0,80,0.10,,---,0.29,VWS V14.01,2013-06-19 21:11:00,
2013-06-19 17:14:00,81.1,74.7,29.90,SSE,159,4.0,7.0,81,0.10,,---,0.29,VWS V14.01,2013-06-19 21:14:00,
2013-06-19 17:17:00,80.7,75.1,29.90,SSE,159,2.0,7.0,83,0.10,,---,0.29,VWS V14.01,2013-06-19 21:17:00,
2013-06-19 17:18:00,80.5,75.2,29.89,SSE,159,7.0,7.0,84,0.10,,---,0.29,VWS V14.01,2013-06-19 21:18:00,
2013-06-19 17:20:00,80.5,75.6,29.89,SSE,159,1.0,7.0,85,0.10,,---,0.29,VWS V14.01,2013-06-19 21:20:00,
2013-06-19 17:21:00,80.5,75.6,29.89,SSE,159,0.0,7.0,85,0.10,,---,0.29,VWS V14.01,2013-06-19 21:21:00,
2013-06-19 17:22:00,80.9,76.7,29.89,SSE,159,0.0,7.0,87,0.10,,---,0.29,VWS V14.01,2013-06-19 21:22:00,
2013-06-19 17:23:00,81.1,77.2,29.89,SSE,159,0.0,7.0,88,0.10,,---,0.29,VWS V14.01,2013-06-19 21:23:00,
2013-06-19 17:24:00,81.1,77.2,29.89,SSE,159,0.0,7.0,88,0.10,,---,0.29,VWS V14.01,2013-06-19 21:24:00,
2013-06-19 17:27:00,81.4,77.5,29.89,SSE,159,0.0,7.0,88,0.10,,---,0.29,VWS V14.01,2013-06-19 21:27:00,
2013-06-19 17:28:00,81.6,77.7,29.89,SSE,159,0.0,7.0,88,0.10,,---,0.29,VWS V14.01,2013-06-19 21:28:00,
2013-06-19 17:29:00,81.6,77.7,29.89,SSE,159,0.0,7.0,88,0.10,,---,0.29,VWS V14.01,2013-06-19 21:29:00,
2013-06-19 17:30:00,81.6,77.4,29.89,SSE,159,0.0,7.0,87,0.10,,---,0.29,VWS V14.01,2013-06-19 21:30:00,
2013-06-19 17:32:00,81.8,77.2,29.89,SSE,159,5.0,7.0,86,0.10,,---,0.29,VWS V14.01,2013-06-19 21:32:00,
2013-06-19 17:34:00,82.0,77.4,29.90,SSE,159,0.0,7.0,86,0.10,,---,0.29,VWS V14.01,2013-06-19 21:34:00,
2013-06-19 17:35:00,82.2,77.6,29.90,SSE,159,0.0,7.0,86,0.10,,---,0.29,VWS V14.01,2013-06-19 21:35:00,
2013-06-19 17:37:00,82.6,78.0,29.90,SSE,159,0.0,7.0,86,0.10,,---,0.29,VWS V14.01,2013-06-19 21:37:00,
2013-06-19 17:39:00,82.6,77.6,29.90,SSE,159,0.0,7.0,85,0.10,,---,0.29,VWS V14.01,2013-06-19 21:39:00,
2013-06-19 17:40:00,82.8,77.8,29.90,SSE,159,0.0,7.0,85,0.10,,---,0.29,VWS V14.01,2013-06-19 21:40:00,
2013-06-19 17:41:00,83.0,78.0,29.90,SSE,159,0.0,7.0,85,0.10,,---,0.29,VWS V14.01,2013-06-19 21:41:00,
2013-06-19 17:45:00,83.4,78.1,29.90,SSE,159,0.0,7.0,84,0.10,,---,0.29,VWS V14.01,2013-06-19 21:45:00,
2013-06-19 17:46:00,83.6,78.6,29.90,SSE,158,1.0,7.0,85,0.10,,---,0.29,VWS V14.01,2013-06-19 21:46:00,
2013-06-19 17:47:00,83.6,78.3,29.90,SSE,158,0.0,7.0,84,0.10,,---,0.29,VWS V14.01,2013-06-19 21:47:00,
2013-06-19 17:48:00,83.6,77.5,29.90,SSE,158,0.0,7.0,82,0.10,,---,0.29,VWS V14.01,2013-06-19 21:48:00,
2013-06-19 17:50:00,84.1,78.8,29.89,SSE,158,0.0,7.0,84,0.10,,---,0.29,VWS V14.01,2013-06-19 21:50:00,
2013-06-19 17:52:00,84.5,78.8,29.89,SSE,158,0.0,7.0,83,0.10,,---,0.29,VWS V14.01,2013-06-19 21:52:00,
2013-06-19 17:53:00,84.5,77.7,29.89,SSE,158,0.0,7.0,80,0.10,,---,0.29,VWS V14.01,2013-06-19 21:53:00,
2013-06-19 17:55:00,84.7,77.8,29.89,SSE,158,0.0,7.0,80,0.10,,---,0.29,VWS V14.01,2013-06-19 21:55:00,
2013-06-19 17:56:00,84.9,78.0,29.89,SSE,158,0.0,7.0,80,0.10,,---,0.29,VWS V14.01,2013-06-19 21:56:00,
2013-06-19 18:00:00,85.9,77.9,29.89,SSE,158,0.0,7.0,77,0.10,,---,0.29,VWS V14.01,2013-06-19 22:00:00,
2013-06-19 18:01:00,85.9,77.9,29.89,SSE,158,0.0,7.0,77,0.10,,---,0.29,VWS V14.01,2013-06-19 22:01:00,
2013-06-19 18:02:00,86.1,78.1,29.89,SSE,158,0.0,7.0,77,0.10,,---,0.29,VWS V14.01,2013-06-19 22:02:00,
2013-06-19 18:06:00,87.0,77.7,29.89,SSE,158,0.0,7.0,74,0.10,,---,0.29,VWS V14.01,2013-06-19 22:06:00,
2013-06-19 18:07:00,87.2,77.9,29.89,SSE,158,0.0,7.0,74,0.10,,---,0.29,VWS V14.01,2013-06-19 22:07:00,
2013-06-19 18:08:00,87.6,78.3,29.89,SSE,158,2.0,7.0,74,0.10,,---,0.29,VWS V14.01,2013-06-19 22:08:00,
2013-06-19 18:10:00,87.6,76.6,29.89,NNW,335,5.0,7.0,70,0.10,,---,0.29,VWS V14.01,2013-06-19 22:10:00,
2013-06-19 18:12:00,87.8,76.4,29.89,NNW,337,0.0,7.0,69,0.10,,---,0.29,VWS V14.01,2013-06-19 22:12:00,
2013-06-19 18:13:00,88.0,76.1,29.89,NNW,337,0.0,7.0,68,0.10,,---,0.29,VWS V14.01,2013-06-19 22:13:00,
2013-06-19 18:14:00,88.0,76.6,29.89,NW,324,5.0,7.0,69,0.10,,---,0.29,VWS V14.01,2013-06-19 22:14:00,
2013-06-19 18:15:00,88.0,75.7,29.89,NW,324,0.0,7.0,67,0.10,,---,0.29,VWS V14.01,2013-06-19 22:15:00,
2013-06-19 18:16:00,88.2,76.3,29.89,NW,324,0.0,7.0,68,0.10,,---,0.29,VWS V14.01,2013-06-19 22:16:00,
2013-06-19 18:18:00,88.4,75.6,29.89,NW,324,0.0,7.0,66,0.10,,---,0.29,VWS V14.01,2013-06-19 22:18:00,
2013-06-19 18:20:00,88.6,76.2,29.89,NW,324,0.0,7.0,67,0.10,,---,0.29,VWS V14.01,2013-06-19 22:20:00,
2013-06-19 18:22:00,88.8,76.0,29.89,NW,324,0.0,7.0,66,0.10,,---,0.29,VWS V14.01,2013-06-19 22:22:00,
2013-06-19 18:24:00,89.0,76.2,29.89,NW,324,0.0,7.0,66,0.10,,---,0.29,VWS V14.01,2013-06-19 22:24:00,
2013-06-19 18:27:00,89.7,77.3,29.89,NW,324,0.0,7.0,67,0.10,,---,0.29,VWS V14.01,2013-06-19 22:27:00,
2013-06-19 18:30:00,90.3,76.9,29.89,East,89,1.0,7.0,65,0.10,,---,0.29,VWS V14.01,2013-06-19 22:30:00,
2013-06-19 18:31:00,90.3,76.5,29.89,South,170,7.0,7.0,64,0.10,,---,0.29,VWS V14.01,2013-06-19 22:31:00,
2013-06-19 18:32:00,90.3,76.9,29.89,SE,141,0.0,7.0,65,0.10,,---,0.29,VWS V14.01,2013-06-19 22:32:00,
2013-06-19 18:33:00,90.3,77.4,29.89,South,188,0.0,7.0,66,0.10,,---,0.29,VWS V14.01,2013-06-19 22:33:00,
2013-06-19 18:36:00,90.1,77.7,29.89,South,188,0.0,7.0,67,0.10,,---,0.29,VWS V14.01,2013-06-19 22:36:00,
2013-06-19 18:38:00,89.9,77.0,29.89,South,188,0.0,7.0,66,0.10,,---,0.29,VWS V14.01,2013-06-19 22:38:00,
2013-06-19 18:39:00,89.7,76.8,29.89,South,188,0.0,7.0,66,0.10,,---,0.29,VWS V14.01,2013-06-19 22:39:00,
2013-06-19 18:41:00,89.5,77.1,29.89,ESE,105,0.0,7.0,67,0.10,,---,0.29,VWS V14.01,2013-06-19 22:41:00,
2013-06-19 18:44:00,89.3,77.4,29.89,SSE,160,5.0,7.0,68,0.10,,---,0.29,VWS V14.01,2013-06-19 22:44:00,
2013-06-19 18:45:00,89.0,76.6,29.89,SSE,158,0.0,7.0,67,0.10,,---,0.29,VWS V14.01,2013-06-19 22:45:00,
2013-06-19 18:47:00,88.8,76.4,29.89,SSE,160,0.0,7.0,67,0.10,,---,0.29,VWS V14.01,2013-06-19 22:47:00,
2013-06-19 18:49:00,88.4,76.9,29.90,SSE,160,0.0,7.0,69,0.10,,---,0.29,VWS V14.01,2013-06-19 22:49:00,
2013-06-19 18:50:00,88.0,76.6,29.90,SSE,160,0.0,7.0,69,0.10,,---,0.29,VWS V14.01,2013-06-19 22:50:00,
2013-06-19 18:52:00,87.6,76.6,29.90,SSE,160,0.0,7.0,70,0.10,,---,0.29,VWS V14.01,2013-06-19 22:52:00,
2013-06-19 18:54:00,87.4,76.4,29.90,SSE,160,0.0,7.0,70,0.10,,---,0.29,VWS V14.01,2013-06-19 22:54:00,
2013-06-19 18:56:00,87.2,76.2,29.90,SSE,160,0.0,7.0,70,0.10,,---,0.29,VWS V14.01,2013-06-19 22:56:00,
2013-06-19 18:58:00,87.0,76.0,29.90,SSE,160,0.0,7.0,70,0.10,,---,0.29,VWS V14.01,2013-06-19 22:58:00,
2013-06-19 18:59:00,87.2,76.2,29.90,SSE,160,0.0,7.0,70,0.10,,---,0.29,VWS V14.01,2013-06-19 22:59:00,
2013-06-19 19:03:00,87.2,76.2,29.90,SSE,160,0.0,7.0,70,0.10,,---,0.29,VWS V14.01,2013-06-19 23:03:00,
2013-06-19 19:04:00,87.4,76.4,29.89,SSE,160,0.0,7.0,70,0.10,,---,0.29,VWS V14.01,2013-06-19 23:04:00,
2013-06-19 19:05:00,87.4,76.0,29.89,SSE,160,0.0,0.0,69,0.00,,---,0.29,VWS V14.01,2013-06-19 23:05:00,
2013-06-19 19:07:00,87.4,75.6,29.89,SSE,160,0.0,0.0,68,0.00,,---,0.29,VWS V14.01,2013-06-19 23:07:00,
2013-06-19 19:09:00,87.6,76.2,29.89,SSE,160,0.0,0.0,69,0.00,,---,0.29,VWS V14.01,2013-06-19 23:09:00,
2013-06-19 19:10:00,87.6,76.6,29.89,SSE,160,0.0,0.0,70,0.00,,---,0.29,VWS V14.01,2013-06-19 23:10:00,
2013-06-19 19:11:00,87.6,76.6,29.89,SSE,160,0.0,0.0,70,0.00,,---,0.29,VWS V14.01,2013-06-19 23:11:00,
2013-06-19 19:12:00,87.6,76.6,29.89,SSE,160,0.0,0.0,70,0.00,,---,0.29,VWS V14.01,2013-06-19 23:12:00,
2013-06-19 19:14:00,87.4,76.0,29.89,SSE,160,0.0,3.0,69,0.00,,---,0.29,VWS V14.01,2013-06-19 23:14:00,
2013-06-19 19:17:00,87.0,76.0,29.89,SSW,197,0.0,3.0,70,0.00,,---,0.29,VWS V14.01,2013-06-19 23:17:00,
2013-06-19 19:18:00,87.0,76.0,29.89,SSW,197,0.0,3.0,70,0.00,,---,0.29,VWS V14.01,2013-06-19 23:18:00,
2013-06-19 19:19:00,87.0,76.0,29.91,SSW,197,0.0,3.0,70,0.00,,---,0.29,VWS V14.01,2013-06-19 23:19:00,
2013-06-19 19:22:00,86.7,75.8,29.91,SSW,197,1.0,3.0,70,0.00,,---,0.29,VWS V14.01,2013-06-19 23:22:00,
2013-06-19 19:26:00,86.7,75.8,29.91,SSW,197,0.0,3.0,70,0.00,,---,0.29,VWS V14.01,2013-06-19 23:26:00,
2013-06-19 19:27:00,86.7,75.8,29.91,SSW,197,0.0,3.0,70,0.00,,---,0.29,VWS V14.01,2013-06-19 23:27:00,
2013-06-19 19:28:00,86.7,75.8,29.91,SSW,197,0.0,3.0,70,0.00,,---,0.29,VWS V14.01,2013-06-19 23:28:00,
2013-06-19 19:29:00,86.7,75.8,29.91,SSW,197,0.0,3.0,70,0.00,,---,0.29,VWS V14.01,2013-06-19 23:29:00,
2013-06-19 19:32:00,86.5,75.6,29.91,SSW,197,0.0,3.0,70,0.00,,---,0.29,VWS V14.01,2013-06-19 23:32:00,
2013-06-19 19:33:00,86.5,75.6,29.91,SSW,197,0.0,3.0,70,0.00,,---,0.29,VWS V14.01,2013-06-19 23:33:00,
2013-06-19 19:34:00,86.5,75.6,29.91,SSW,197,0.0,3.0,70,0.00,,---,0.29,VWS V14.01,2013-06-19 23:34:00,
2013-06-19 19:36:00,86.5,75.6,29.91,SSW,197,0.0,3.0,70,0.00,,---,0.29,VWS V14.01,2013-06-19 23:36:00,
2013-06-19 19:38:00,86.3,74.9,29.91,SSW,197,0.0,3.0,69,0.00,,---,0.29,VWS V14.01,2013-06-19 23:38:00,
2013-06-19 19:39:00,86.3,75.4,29.91,SSW,197,0.0,3.0,70,0.00,,---,0.29,VWS V14.01,2013-06-19 23:39:00,
2013-06-19 19:41:00,85.9,75.4,29.91,SSW,197,0.0,3.0,71,0.00,,---,0.29,VWS V14.01,2013-06-19 23:41:00,
2013-06-19 19:42:00,85.9,75.4,29.91,SSW,197,0.0,3.0,71,0.00,,---,0.29,VWS V14.01,2013-06-19 23:42:00,
2013-06-19 19:43:00,85.7,75.6,29.91,SSW,197,0.0,3.0,72,0.00,,---,0.29,VWS V14.01,2013-06-19 23:43:00,
2013-06-19 19:45:00,85.7,75.6,29.91,SSW,197,0.0,3.0,72,0.00,,---,0.29,VWS V14.01,2013-06-19 23:45:00,
2013-06-19 19:46:00,85.5,75.0,29.91,SSW,197,0.0,3.0,71,0.00,,---,0.29,VWS V14.01,2013-06-19 23:46:00,
2013-06-19 19:47:00,85.5,75.0,29.91,SSW,197,0.0,3.0,71,0.00,,---,0.29,VWS V14.01,2013-06-19 23:47:00,
2013-06-19 19:48:00,85.5,75.4,29.91,SSW,197,0.0,3.0,72,0.00,,---,0.29,VWS V14.01,2013-06-19 23:48:00,
2013-06-19 19:51:00,85.1,75.1,29.91,SSW,197,0.0,3.0,72,0.00,,---,0.29,VWS V14.01,2013-06-19 23:51:00,
2013-06-19 19:52:00,84.9,74.9,29.91,SSW,197,0.0,3.0,72,0.00,,---,0.29,VWS V14.01,2013-06-19 23:52:00,
2013-06-19 19:53:00,84.9,74.9,29.91,SSW,197,0.0,3.0,72,0.00,,---,0.29,VWS V14.01,2013-06-19 23:53:00,
2013-06-19 19:54:00,84.7,74.7,29.91,SSW,197,0.0,3.0,72,0.00,,---,0.29,VWS V14.01,2013-06-19 23:54:00,
2013-06-19 19:56:00,84.7,75.1,29.91,SSW,197,0.0,3.0,73,0.00,,---,0.29,VWS V14.01,2013-06-19 23:56:00,
2013-06-19 19:58:00,84.7,75.1,29.91,SSW,197,0.0,3.0,73,0.00,,---,0.29,VWS V14.01,2013-06-19 23:58:00,
2013-06-19 19:59:00,84.7,75.9,29.91,SSW,197,0.0,3.0,75,0.00,,---,0.29,VWS V14.01,2013-06-19 23:59:00,
2013-06-19 20:00:00,84.7,75.9,29.91,SSW,197,0.0,3.0,75,0.00,,---,0.29,VWS V14.01,2013-06-20 00:00:00,
2013-06-19 20:01:00,84.7,75.9,29.91,SSW,197,0.0,3.0,75,0.00,,---,0.29,VWS V14.01,2013-06-20 00:01:00,
2013-06-19 20:05:00,84.5,76.1,29.92,SSW,197,0.0,0.0,76,0.00,,---,0.29,VWS V14.01,2013-06-20 00:05:00,
2013-06-19 20:06:00,84.5,76.1,29.92,SSW,197,0.0,0.0,76,0.00,,---,0.29,VWS V14.01,2013-06-20 00:06:00,
2013-06-19 20:07:00,84.3,75.5,29.92,SSW,197,0.0,0.0,75,0.00,,---,0.29,VWS V14.01,2013-06-20 00:07:00,
2013-06-19 20:08:00,84.3,75.5,29.92,SSW,197,0.0,0.0,75,0.00,,---,0.29,VWS V14.01,2013-06-20 00:08:00,
2013-06-19 20:10:00,84.1,75.3,29.92,SSW,197,0.0,0.0,75,0.00,,---,0.29,VWS V14.01,2013-06-20 00:10:00,
2013-06-19 20:12:00,84.1,75.7,29.92,SSW,197,0.0,0.0,76,0.00,,---,0.29,VWS V14.01,2013-06-20 00:12:00,
2013-06-19 20:13:00,84.0,75.2,29.92,SSW,197,0.0,0.0,75,0.00,,---,0.29,VWS V14.01,2013-06-20 00:13:00,
2013-06-19 20:16:00,83.8,75.0,29.92,SSW,197,0.0,0.0,75,0.00,,---,0.29,VWS V14.01,2013-06-20 00:16:00,
2013-06-19 20:17:00,83.8,75.4,29.92,SSW,197,0.0,0.0,76,0.00,,---,0.29,VWS V14.01,2013-06-20 00:17:00,
2013-06-19 20:18:00,83.8,75.8,29.92,SSW,197,0.0,0.0,77,0.00,,---,0.29,VWS V14.01,2013-06-20 00:18:00,
2013-06-19 20:19:00,83.8,75.8,29.92,SSW,197,0.0,0.0,77,0.00,,---,0.29,VWS V14.01,2013-06-20 00:19:00,
2013-06-19 20:21:00,83.8,76.2,29.92,SSW,197,0.0,0.0,78,0.00,,---,0.29,VWS V14.01,2013-06-20 00:21:00,
2013-06-19 20:23:00,83.6,76.0,29.92,SSW,197,0.0,0.0,78,0.00,,---,0.29,VWS V14.01,2013-06-20 00:23:00,
2013-06-19 20:26:00,83.4,76.2,29.92,SSW,197,0.0,0.0,79,0.00,,---,0.29,VWS V14.01,2013-06-20 00:26:00,
2013-06-19 20:28:00,83.2,76.0,29.92,SSW,197,0.0,0.0,79,0.00,,---,0.29,VWS V14.01,2013-06-20 00:28:00,
2013-06-19 20:29:00,83.2,76.0,29.92,SSW,197,0.0,0.0,79,0.00,,---,0.29,VWS V14.01,2013-06-20 00:29:00,
2013-06-19 20:32:00,82.8,75.6,29.92,SSW,197,0.0,0.0,79,0.00,,---,0.29,VWS V14.01,2013-06-20 00:32:00,
2013-06-19 20:33:00,82.8,76.0,29.92,SSW,197,0.0,0.0,80,0.00,,---,0.29,VWS V14.01,2013-06-20 00:33:00,
2013-06-19 20:34:00,82.6,75.8,29.92,SSW,197,0.0,0.0,80,0.00,,---,0.29,VWS V14.01,2013-06-20 00:34:00,
2013-06-19 20:36:00,82.4,75.6,29.92,SSW,197,0.0,0.0,80,0.00,,---,0.29,VWS V14.01,2013-06-20 00:36:00,
2013-06-19 20:37:00,82.2,75.4,29.92,SSW,197,0.0,0.0,80,0.00,,---,0.29,VWS V14.01,2013-06-20 00:37:00,
2013-06-19 20:40:00,82.0,75.6,29.92,SSW,197,0.0,1.0,81,0.00,,---,0.29,VWS V14.01,2013-06-20 00:40:00,
2013-06-19 20:43:00,81.6,75.6,29.92,SSW,197,0.0,1.0,82,0.00,,---,0.29,VWS V14.01,2013-06-20 00:43:00,
2013-06-19 20:46:00,81.4,75.4,29.92,SSW,197,0.0,1.0,82,0.00,,---,0.29,VWS V14.01,2013-06-20 00:46:00,
2013-06-19 20:47:00,81.4,75.4,29.92,SSW,197,0.0,1.0,82,0.00,,---,0.29,VWS V14.01,2013-06-20 00:47:00,
2013-06-19 20:49:00,81.2,75.2,29.92,SSW,197,0.0,1.0,82,0.00,,---,0.29,VWS V14.01,2013-06-20 00:49:00,
2013-06-19 20:53:00,80.9,74.9,29.92,SSW,197,0.0,1.0,82,0.00,,---,0.29,VWS V14.01,2013-06-20 00:53:00,
2013-06-19 20:54:00,80.9,75.3,29.92,SSW,197,0.0,1.0,83,0.00,,---,0.29,VWS V14.01,2013-06-20 00:54:00,
2013-06-19 20:55:00,80.9,75.3,29.92,SSW,197,0.0,1.0,83,0.00,,---,0.29,VWS V14.01,2013-06-20 00:55:00,
2013-06-19 20:56:00,80.7,75.1,29.92,SSW,197,0.0,1.0,83,0.00,,---,0.29,VWS V14.01,2013-06-20 00:56:00,
2013-06-19 20:57:00,80.5,74.9,29.92,SSW,197,0.0,1.0,83,0.00,,---,0.29,VWS V14.01,2013-06-20 00:57:00,
2013-06-19 20:59:00,80.5,74.9,29.92,SSW,197,0.0,1.0,83,0.00,,---,0.29,VWS V14.01,2013-06-20 00:59:00,
2013-06-19 21:00:00,80.5,74.9,29.92,SSW,197,0.0,1.0,83,0.00,,---,0.29,VWS V14.01,2013-06-20 01:00:00,
2013-06-19 21:01:00,80.3,74.7,29.92,SSW,197,0.0,1.0,83,0.00,,---,0.29,VWS V14.01,2013-06-20 01:01:00,
2013-06-19 21:03:00,80.3,75.0,29.92,SSW,197,0.0,1.0,84,0.00,,---,0.29,VWS V14.01,2013-06-20 01:03:00,
2013-06-19 21:04:00,80.3,75.0,29.92,SSW,197,0.0,1.0,84,0.00,,---,0.29,VWS V14.01,2013-06-20 01:04:00,
2013-06-19 21:06:00,80.1,74.8,29.92,SSW,197,0.0,0.0,84,0.00,,---,0.29,VWS V14.01,2013-06-20 01:06:00,
2013-06-19 21:07:00,80.1,75.2,29.92,SSW,197,0.0,0.0,85,0.00,,---,0.29,VWS V14.01,2013-06-20 01:07:00,
2013-06-19 21:08:00,80.1,75.2,29.92,SSW,197,0.0,0.0,85,0.00,,---,0.29,VWS V14.01,2013-06-20 01:08:00,
2013-06-19 21:09:00,79.9,75.0,29.92,SSW,197,0.0,0.0,85,0.00,,---,0.29,VWS V14.01,2013-06-20 01:09:00,
2013-06-19 21:12:00,79.9,75.3,29.92,SSW,197,0.0,0.0,86,0.00,,---,0.29,VWS V14.01,2013-06-20 01:12:00,
2013-06-19 21:13:00,79.9,75.3,29.92,SSW,197,0.0,0.0,86,0.00,,---,0.29,VWS V14.01,2013-06-20 01:13:00,
2013-06-19 21:14:00,79.8,75.2,29.92,SSW,197,0.0,0.0,86,0.00,,---,0.29,VWS V14.01,2013-06-20 01:14:00,
2013-06-19 21:15:00,79.8,75.2,29.92,SSW,197,0.0,0.0,86,0.00,,---,0.29,VWS V14.01,2013-06-20 01:15:00,
2013-06-19 21:18:00,79.6,75.1,29.92,SSW,197,0.0,0.0,86,0.00,,---,0.29,VWS V14.01,2013-06-20 01:18:00,
2013-06-19 21:19:00,79.6,75.4,29.93,SSW,197,0.0,0.0,87,0.00,,---,0.29,VWS V14.01,2013-06-20 01:19:00,
2013-06-19 21:21:00,79.4,75.2,29.93,SSW,197,0.0,0.0,87,0.00,,---,0.29,VWS V14.01,2013-06-20 01:21:00,
2013-06-19 21:23:00,79.4,75.2,29.93,SSW,197,0.0,0.0,87,0.00,,---,0.29,VWS V14.01,2013-06-20 01:23:00,
2013-06-19 21:24:00,79.4,75.2,29.93,SSW,197,0.0,0.0,87,0.00,,---,0.29,VWS V14.01,2013-06-20 01:24:00,
2013-06-19 21:25:00,79.2,75.0,29.93,SSW,197,0.0,0.0,87,0.00,,---,0.29,VWS V14.01,2013-06-20 01:25:00,
2013-06-19 21:26:00,79.2,75.0,29.93,SSW,197,0.0,0.0,87,0.00,,---,0.29,VWS V14.01,2013-06-20 01:26:00,
2013-06-19 21:27:00,79.2,75.3,29.93,SSW,197,0.0,0.0,88,0.00,,---,0.29,VWS V14.01,2013-06-20 01:27:00,
2013-06-19 21:29:00,79.2,75.3,29.93,SSW,197,0.0,0.0,88,0.00,,---,0.29,VWS V14.01,2013-06-20 01:29:00,
2013-06-19 21:31:00,79.0,75.2,29.93,SSW,197,0.0,0.0,88,0.00,,---,0.29,VWS V14.01,2013-06-20 01:31:00,
2013-06-19 21:33:00,79.0,75.2,29.93,SSW,197,0.0,0.0,88,0.00,,---,0.29,VWS V14.01,2013-06-20 01:33:00,
2013-06-19 21:35:00,78.8,75.3,29.93,SSW,197,0.0,0.0,89,0.00,,---,0.29,VWS V14.01,2013-06-20 01:35:00,
2013-06-19 21:36:00,78.8,75.3,29.93,SSW,197,0.0,0.0,89,0.00,,---,0.29,VWS V14.01,2013-06-20 01:36:00,
2013-06-19 21:37:00,78.8,75.3,29.93,SSW,197,0.0,0.0,89,0.00,,---,0.29,VWS V14.01,2013-06-20 01:37:00,
2013-06-19 21:40:00,78.6,75.1,29.93,SSW,197,0.0,0.0,89,0.00,,---,0.29,VWS V14.01,2013-06-20 01:40:00,
2013-06-19 21:42:00,78.6,75.1,29.93,SSW,197,0.0,0.0,89,0.00,,---,0.29,VWS V14.01,2013-06-20 01:42:00,
2013-06-19 21:43:00,78.6,75.1,29.93,SSW,197,0.0,0.0,89,0.00,,---,0.29,VWS V14.01,2013-06-20 01:43:00,
2013-06-19 21:45:00,78.5,75.0,29.93,SSW,197,0.0,0.0,89,0.00,,---,0.29,VWS V14.01,2013-06-20 01:45:00,
2013-06-19 21:48:00,78.5,75.3,29.94,SSW,197,0.0,0.0,90,0.00,,---,0.29,VWS V14.01,2013-06-20 01:48:00,
2013-06-19 21:49:00,78.3,75.1,29.94,SSW,197,0.0,0.0,90,0.00,,---,0.29,VWS V14.01,2013-06-20 01:49:00,
2013-06-19 21:50:00,78.3,75.1,29.94,SSW,197,0.0,0.0,90,0.00,,---,0.29,VWS V14.01,2013-06-20 01:50:00,
2013-06-19 21:51:00,78.3,75.1,29.94,SSW,197,0.0,0.0,90,0.00,,---,0.29,VWS V14.01,2013-06-20 01:51:00,
2013-06-19 21:53:00,78.3,75.1,29.94,SSW,197,0.0,0.0,90,0.00,,---,0.29,VWS V14.01,2013-06-20 01:53:00,
2013-06-19 21:54:00,78.3,75.1,29.94,SSW,197,0.0,0.0,90,0.00,,---,0.29,VWS V14.01,2013-06-20 01:54:00,
2013-06-19 21:57:00,78.1,74.9,29.94,SSW,197,0.0,0.0,90,0.00,,---,0.29,VWS V14.01,2013-06-20 01:57:00,
2013-06-19 22:00:00,78.1,74.9,29.94,SSW,197,0.0,0.0,90,0.00,,---,0.29,VWS V14.01,2013-06-20 02:00:00,
2013-06-19 22:01:00,78.1,75.3,29.94,SSW,197,0.0,0.0,91,0.00,,---,0.29,VWS V14.01,2013-06-20 02:01:00,
2013-06-19 22:04:00,77.9,75.1,29.94,SSW,197,1.0,1.0,91,0.00,,---,0.29,VWS V14.01,2013-06-20 02:04:00,
2013-06-19 22:05:00,77.9,75.1,29.94,SSW,197,1.0,1.0,91,0.00,,---,0.29,VWS V14.01,2013-06-20 02:05:00,
2013-06-19 22:06:00,77.9,75.1,29.94,SSW,197,0.0,1.0,91,0.00,,---,0.29,VWS V14.01,2013-06-20 02:06:00,
2013-06-19 22:10:00,77.9,75.1,29.94,SSE,157,0.0,3.0,91,0.00,,---,0.29,VWS V14.01,2013-06-20 02:10:00,
2013-06-19 22:11:00,77.9,75.1,29.94,SSE,157,0.0,3.0,91,0.00,,---,0.29,VWS V14.01,2013-06-20 02:11:00,
2013-06-19 22:15:00,77.7,74.5,29.94,SSE,157,0.0,3.0,90,0.00,,---,0.29,VWS V14.01,2013-06-20 02:15:00,
2013-06-19 22:16:00,77.9,74.7,29.94,SSE,157,0.0,3.0,90,0.00,,---,0.29,VWS V14.01,2013-06-20 02:16:00,
2013-06-19 22:17:00,77.9,74.7,29.94,SSE,157,0.0,3.0,90,0.00,,---,0.29,VWS V14.01,2013-06-20 02:17:00,
2013-06-19 22:22:00,77.9,74.7,29.95,SSE,157,0.0,3.0,90,0.00,,---,0.29,VWS V14.01,2013-06-20 02:22:00,
2013-06-19 22:23:00,77.9,74.7,29.95,SSE,157,0.0,3.0,90,0.00,,---,0.29,VWS V14.01,2013-06-20 02:23:00,
2013-06-19 22:28:00,77.9,74.4,29.95,SSE,157,0.0,3.0,89,0.00,,---,0.29,VWS V14.01,2013-06-20 02:28:00,
2013-06-19 22:29:00,77.9,74.4,29.95,SSE,157,0.0,3.0,89,0.00,,---,0.29,VWS V14.01,2013-06-20 02:29:00,
2013-06-19 22:34:00,78.1,74.6,29.95,SSE,157,0.0,3.0,89,0.00,,---,0.29,VWS V14.01,2013-06-20 02:34:00,
2013-06-19 22:35:00,78.1,74.6,29.94,SSE,157,0.0,3.0,89,0.00,,---,0.29,VWS V14.01,2013-06-20 02:35:00,
2013-06-19 22:36:00,78.1,74.6,29.94,SSE,157,0.0,3.0,89,0.00,,---,0.29,VWS V14.01,2013-06-20 02:36:00,
2013-06-19 22:39:00,78.1,74.6,29.94,SSE,157,0.0,3.0,89,0.00,,---,0.29,VWS V14.01,2013-06-20 02:39:00,
2013-06-19 22:40:00,78.1,74.6,29.94,SSE,157,0.0,3.0,89,0.00,,---,0.29,VWS V14.01,2013-06-20 02:40:00,
2013-06-19 22:42:00,78.1,74.6,29.94,SSE,157,0.0,3.0,89,0.00,,---,0.29,VWS V14.01,2013-06-20 02:42:00,
2013-06-19 22:44:00,77.9,74.4,29.94,SSE,157,0.0,3.0,89,0.00,,---,0.29,VWS V14.01,2013-06-20 02:44:00,
2013-06-19 22:46:00,77.9,74.4,29.94,SSE,157,0.0,3.0,89,0.00,,---,0.29,VWS V14.01,2013-06-20 02:46:00,
2013-06-19 22:47:00,77.9,74.4,29.94,SSE,157,0.0,3.0,89,0.00,,---,0.29,VWS V14.01,2013-06-20 02:47:00,
2013-06-19 22:48:00,77.9,74.4,29.94,SSE,157,0.0,3.0,89,0.00,,---,0.29,VWS V14.01,2013-06-20 02:48:00,
2013-06-19 22:49:00,77.9,74.4,29.94,SSE,157,0.0,3.0,89,0.00,,---,0.29,VWS V14.01,2013-06-20 02:49:00,
2013-06-19 22:52:00,77.7,74.2,29.94,SSE,157,0.0,3.0,89,0.00,,---,0.29,VWS V14.01,2013-06-20 02:52:00,
2013-06-19 22:53:00,77.7,74.2,29.94,SSE,157,0.0,3.0,89,0.00,,---,0.29,VWS V14.01,2013-06-20 02:53:00,
2013-06-19 22:54:00,77.7,74.2,29.94,SSE,157,0.0,3.0,89,0.00,,---,0.29,VWS V14.01,2013-06-20 02:54:00,
2013-06-19 22:55:00,77.7,74.5,29.94,SSE,157,0.0,3.0,90,0.00,,---,0.29,VWS V14.01,2013-06-20 02:55:00,
2013-06-19 22:57:00,77.7,74.5,29.94,SSE,157,0.0,3.0,90,0.00,,---,0.29,VWS V14.01,2013-06-20 02:57:00,
2013-06-19 22:58:00,77.7,74.5,29.94,SSE,157,0.0,3.0,90,0.00,,---,0.29,VWS V14.01,2013-06-20 02:58:00,
2013-06-19 23:00:00,77.6,74.4,29.94,SSE,157,0.0,3.0,90,0.00,,---,0.29,VWS V14.01,2013-06-20 03:00:00,
2013-06-19 23:03:00,77.6,74.4,29.94,SSE,157,0.0,3.0,90,0.00,,---,0.29,VWS V14.01,2013-06-20 03:03:00,
2013-06-19 23:05:00,77.4,74.2,29.94,SSE,157,0.0,0.0,90,0.00,,---,0.29,VWS V14.01,2013-06-20 03:05:00,
2013-06-19 23:06:00,77.4,74.2,29.94,SSE,157,0.0,0.0,90,0.00,,---,0.29,VWS V14.01,2013-06-20 03:06:00,
2013-06-19 23:08:00,77.4,74.2,29.94,SSE,157,0.0,0.0,90,0.00,,---,0.29,VWS V14.01,2013-06-20 03:08:00,
2013-06-19 23:09:00,77.4,74.2,29.94,SSE,157,0.0,0.0,90,0.00,,---,0.29,VWS V14.01,2013-06-20 03:09:00,
2013-06-19 23:11:00,77.2,74.4,29.94,SSE,157,0.0,0.0,91,0.00,,---,0.29,VWS V14.01,2013-06-20 03:11:00,
2013-06-19 23:13:00,77.2,74.4,29.94,SSE,157,0.0,0.0,91,0.00,,---,0.29,VWS V14.01,2013-06-20 03:13:00,
2013-06-19 23:14:00,77.2,74.4,29.94,SSE,157,0.0,0.0,91,0.00,,---,0.29,VWS V14.01,2013-06-20 03:14:00,
2013-06-19 23:16:00,77.0,74.2,29.94,SSE,157,0.0,0.0,91,0.00,,---,0.29,VWS V14.01,2013-06-20 03:16:00,
2013-06-19 23:17:00,77.0,74.2,29.94,SSE,157,0.0,0.0,91,0.00,,---,0.29,VWS V14.01,2013-06-20 03:17:00,
2013-06-19 23:18:00,77.0,74.2,29.94,SSE,157,0.0,0.0,91,0.00,,---,0.29,VWS V14.01,2013-06-20 03:18:00,
2013-06-19 23:20:00,77.0,74.2,29.94,SSE,157,0.0,0.0,91,0.00,,---,0.29,VWS V14.01,2013-06-20 03:20:00,
2013-06-19 23:21:00,77.0,74.2,29.94,SSE,157,0.0,0.0,91,0.00,,---,0.29,VWS V14.01,2013-06-20 03:21:00,
2013-06-19 23:22:00,77.0,74.2,29.94,SSE,157,0.0,0.0,91,0.00,,---,0.29,VWS V14.01,2013-06-20 03:22:00,
2013-06-19 23:24:00,77.0,74.2,29.94,SSE,157,0.0,0.0,91,0.00,,---,0.29,VWS V14.01,2013-06-20 03:24:00,
2013-06-19 23:26:00,77.0,74.5,29.94,SSE,157,0.0,0.0,92,0.00,,---,0.29,VWS V14.01,2013-06-20 03:26:00,
2013-06-19 23:27:00,77.0,74.5,29.94,SSE,157,0.0,0.0,92,0.00,,---,0.29,VWS V14.01,2013-06-20 03:27:00,
2013-06-19 23:28:00,77.0,74.5,29.94,SSE,157,0.0,0.0,92,0.00,,---,0.29,VWS V14.01,2013-06-20 03:28:00,
2013-06-19 23:30:00,77.0,74.5,29.94,SSE,157,0.0,0.0,92,0.00,,---,0.29,VWS V14.01,2013-06-20 03:30:00,
2013-06-19 23:32:00,76.8,74.3,29.94,SSE,157,0.0,0.0,92,0.00,,---,0.29,VWS V14.01,2013-06-20 03:32:00,
2013-06-19 23:34:00,76.8,74.3,29.94,SSE,157,0.0,0.0,92,0.00,,---,0.29,VWS V14.01,2013-06-20 03:34:00,
2013-06-19 23:37:00,76.8,74.3,29.94,SSE,157,0.0,0.0,92,0.00,,---,0.29,VWS V14.01,2013-06-20 03:37:00,
2013-06-19 23:38:00,76.8,74.3,29.94,SSE,157,0.0,0.0,92,0.00,,---,0.29,VWS V14.01,2013-06-20 03:38:00,
2013-06-19 23:39:00,76.7,74.2,29.94,SSE,157,0.0,0.0,92,0.00,,---,0.29,VWS V14.01,2013-06-20 03:39:00,
2013-06-19 23:42:00,76.7,74.5,29.94,SSE,157,0.0,0.0,93,0.00,,---,0.29,VWS V14.01,2013-06-20 03:42:00,
2013-06-19 23:45:00,76.7,74.5,29.94,SSE,157,0.0,0.0,93,0.00,,---,0.29,VWS V14.01,2013-06-20 03:45:00,
2013-06-19 23:46:00,76.5,74.3,29.94,SSE,157,0.0,0.0,93,0.00,,---,0.29,VWS V14.01,2013-06-20 03:46:00,
2013-06-19 23:48:00,76.5,74.3,29.94,SSE,157,0.0,0.0,93,0.00,,---,0.29,VWS V14.01,2013-06-20 03:48:00,
2013-06-19 23:50:00,76.5,74.3,29.94,SSE,157,0.0,0.0,93,0.00,,---,0.29,VWS V14.01,2013-06-20 03:50:00,
2013-06-19 23:51:00,76.5,74.3,29.94,SSE,157,0.0,0.0,93,0.00,,---,0.29,VWS V14.01,2013-06-20 03:51:00,
2013-06-19 23:53:00,76.5,74.3,29.94,SSE,157,0.0,0.0,93,0.00,,---,0.29,VWS V14.01,2013-06-20 03:53:00,
2013-06-19 23:54:00,76.3,74.1,29.94,SSE,157,0.0,0.0,93,0.00,,---,0.29,VWS V14.01,2013-06-20 03:54:00,
2013-06-19 23:55:00,76.3,74.1,29.94,SSE,157,0.0,0.0,93,0.00,,---,0.29,VWS V14.01,2013-06-20 03:55:00,
2013-06-19 23:56:00,76.3,74.1,29.94,SSE,157,0.0,0.0,93,0.00,,---,0.29,VWS V14.01,2013-06-20 03:56:00,